<?xml version="1.0" encoding="UTF-8" standalone="no" ?>
<gpx xmlns="http://www.topografix.com/GPX/1/1" xmlns:xsi="http://www.w3.org/2001/XMLSchema-instance" xsi:schemaLocation="http://www.topografix.com/GPX/1/1 http://www.topografix.com/GPX/1/1/gpx.xsd" version="1.1" creator="VisuGPX - https://www.visugpx.com">
  <metadata>
    <name>83-M-2013-13-11-Verignon - les deux Chapelles</name>
    <desc><![CDATA[Verignon - les deux Chapelles]]></desc>
  </metadata>
  <trk>
    <name><![CDATA[2013-11-13-verignon]]></name>
    <trkseg>
      <trkpt lat="43.65376" lon="6.27323">
        <ele>823.9</ele>
        <time>2013-11-13T13:12:01Z</time>
      </trkpt>
      <trkpt lat="43.65376" lon="6.27311">
        <ele>822.7</ele>
        <time>2013-11-13T13:15:29Z</time>
      </trkpt>
      <trkpt lat="43.65376" lon="6.27311">
        <ele>823</ele>
        <time>2013-11-13T13:15:30Z</time>
      </trkpt>
      <trkpt lat="43.65384" lon="6.27304">
        <ele>823.9</ele>
        <time>2013-11-13T13:16:47Z</time>
      </trkpt>
      <trkpt lat="43.65388" lon="6.27281">
        <ele>823.1</ele>
        <time>2013-11-13T13:17:06Z</time>
      </trkpt>
      <trkpt lat="43.6539" lon="6.2727">
        <ele>821.1</ele>
        <time>2013-11-13T13:17:15Z</time>
      </trkpt>
      <trkpt lat="43.65391" lon="6.2726">
        <ele>820.6</ele>
        <time>2013-11-13T13:17:22Z</time>
      </trkpt>
      <trkpt lat="43.65394" lon="6.27248">
        <ele>819.8</ele>
        <time>2013-11-13T13:17:31Z</time>
      </trkpt>
      <trkpt lat="43.65397" lon="6.27237">
        <ele>819.5</ele>
        <time>2013-11-13T13:17:38Z</time>
      </trkpt>
      <trkpt lat="43.65399" lon="6.27226">
        <ele>819.2</ele>
        <time>2013-11-13T13:17:45Z</time>
      </trkpt>
      <trkpt lat="43.65402" lon="6.27217">
        <ele>817.9</ele>
        <time>2013-11-13T13:17:51Z</time>
      </trkpt>
      <trkpt lat="43.65403" lon="6.27215">
        <ele>817.4</ele>
        <time>2013-11-13T13:17:52Z</time>
      </trkpt>
      <trkpt lat="43.65406" lon="6.27196">
        <ele>818.4</ele>
        <time>2013-11-13T13:18:01Z</time>
      </trkpt>
      <trkpt lat="43.6541" lon="6.27184">
        <ele>817</ele>
        <time>2013-11-13T13:18:08Z</time>
      </trkpt>
      <trkpt lat="43.65415" lon="6.27176">
        <ele>816.1</ele>
        <time>2013-11-13T13:18:16Z</time>
      </trkpt>
      <trkpt lat="43.65421" lon="6.27167">
        <ele>816.1</ele>
        <time>2013-11-13T13:18:24Z</time>
      </trkpt>
      <trkpt lat="43.65425" lon="6.27158">
        <ele>814.9</ele>
        <time>2013-11-13T13:18:30Z</time>
      </trkpt>
      <trkpt lat="43.65428" lon="6.27146">
        <ele>814.6</ele>
        <time>2013-11-13T13:18:45Z</time>
      </trkpt>
      <trkpt lat="43.65431" lon="6.27135">
        <ele>814.6</ele>
        <time>2013-11-13T13:18:54Z</time>
      </trkpt>
      <trkpt lat="43.65431" lon="6.27134">
        <ele>814.6</ele>
        <time>2013-11-13T13:18:55Z</time>
      </trkpt>
      <trkpt lat="43.65435" lon="6.27112">
        <ele>812.6</ele>
        <time>2013-11-13T13:19:06Z</time>
      </trkpt>
      <trkpt lat="43.65438" lon="6.27101">
        <ele>811.7</ele>
        <time>2013-11-13T13:19:13Z</time>
      </trkpt>
      <trkpt lat="43.65442" lon="6.27091">
        <ele>812.7</ele>
        <time>2013-11-13T13:19:19Z</time>
      </trkpt>
      <trkpt lat="43.65446" lon="6.2708">
        <ele>812</ele>
        <time>2013-11-13T13:19:25Z</time>
      </trkpt>
      <trkpt lat="43.65451" lon="6.27071">
        <ele>811.7</ele>
        <time>2013-11-13T13:19:31Z</time>
      </trkpt>
      <trkpt lat="43.65456" lon="6.27063">
        <ele>812.2</ele>
        <time>2013-11-13T13:19:38Z</time>
      </trkpt>
      <trkpt lat="43.65461" lon="6.27054">
        <ele>811.7</ele>
        <time>2013-11-13T13:19:45Z</time>
      </trkpt>
      <trkpt lat="43.65466" lon="6.27044">
        <ele>810</ele>
        <time>2013-11-13T13:19:53Z</time>
      </trkpt>
      <trkpt lat="43.6547" lon="6.27033">
        <ele>808.8</ele>
        <time>2013-11-13T13:19:59Z</time>
      </trkpt>
      <trkpt lat="43.65471" lon="6.27032">
        <ele>808.7</ele>
        <time>2013-11-13T13:20:00Z</time>
      </trkpt>
      <trkpt lat="43.65478" lon="6.27012">
        <ele>808.9</ele>
        <time>2013-11-13T13:20:10Z</time>
      </trkpt>
      <trkpt lat="43.65484" lon="6.27003">
        <ele>808.4</ele>
        <time>2013-11-13T13:20:16Z</time>
      </trkpt>
      <trkpt lat="43.6549" lon="6.26996">
        <ele>806.8</ele>
        <time>2013-11-13T13:20:22Z</time>
      </trkpt>
      <trkpt lat="43.65495" lon="6.26987">
        <ele>808.3</ele>
        <time>2013-11-13T13:20:28Z</time>
      </trkpt>
      <trkpt lat="43.65501" lon="6.26979">
        <ele>807.3</ele>
        <time>2013-11-13T13:20:35Z</time>
      </trkpt>
      <trkpt lat="43.65504" lon="6.2697">
        <ele>807</ele>
        <time>2013-11-13T13:20:40Z</time>
      </trkpt>
      <trkpt lat="43.65508" lon="6.2696">
        <ele>806.9</ele>
        <time>2013-11-13T13:20:46Z</time>
      </trkpt>
      <trkpt lat="43.65511" lon="6.2695">
        <ele>805.4</ele>
        <time>2013-11-13T13:20:52Z</time>
      </trkpt>
      <trkpt lat="43.65516" lon="6.2694">
        <ele>805.5</ele>
        <time>2013-11-13T13:20:59Z</time>
      </trkpt>
      <trkpt lat="43.65521" lon="6.26931">
        <ele>805.3</ele>
        <time>2013-11-13T13:21:06Z</time>
      </trkpt>
      <trkpt lat="43.65522" lon="6.2693">
        <ele>804.9</ele>
        <time>2013-11-13T13:21:07Z</time>
      </trkpt>
      <trkpt lat="43.65531" lon="6.26912">
        <ele>805.3</ele>
        <time>2013-11-13T13:21:20Z</time>
      </trkpt>
      <trkpt lat="43.65534" lon="6.26902">
        <ele>804.4</ele>
        <time>2013-11-13T13:21:26Z</time>
      </trkpt>
      <trkpt lat="43.65537" lon="6.26891">
        <ele>802.7</ele>
        <time>2013-11-13T13:21:31Z</time>
      </trkpt>
      <trkpt lat="43.65541" lon="6.2688">
        <ele>804.1</ele>
        <time>2013-11-13T13:21:37Z</time>
      </trkpt>
      <trkpt lat="43.65546" lon="6.2687">
        <ele>802.5</ele>
        <time>2013-11-13T13:21:44Z</time>
      </trkpt>
      <trkpt lat="43.65551" lon="6.26861">
        <ele>801.6</ele>
        <time>2013-11-13T13:21:51Z</time>
      </trkpt>
      <trkpt lat="43.65556" lon="6.26851">
        <ele>801.2</ele>
        <time>2013-11-13T13:21:58Z</time>
      </trkpt>
      <trkpt lat="43.6556" lon="6.26841">
        <ele>801.8</ele>
        <time>2013-11-13T13:22:07Z</time>
      </trkpt>
      <trkpt lat="43.65561" lon="6.26839">
        <ele>801.1</ele>
        <time>2013-11-13T13:22:08Z</time>
      </trkpt>
      <trkpt lat="43.65569" lon="6.2682">
        <ele>801</ele>
        <time>2013-11-13T13:22:19Z</time>
      </trkpt>
      <trkpt lat="43.65574" lon="6.26812">
        <ele>801</ele>
        <time>2013-11-13T13:22:26Z</time>
      </trkpt>
      <trkpt lat="43.65578" lon="6.26802">
        <ele>800.6</ele>
        <time>2013-11-13T13:22:32Z</time>
      </trkpt>
      <trkpt lat="43.65581" lon="6.26791">
        <ele>798.4</ele>
        <time>2013-11-13T13:22:37Z</time>
      </trkpt>
      <trkpt lat="43.65585" lon="6.2678">
        <ele>799.5</ele>
        <time>2013-11-13T13:22:44Z</time>
      </trkpt>
      <trkpt lat="43.65588" lon="6.26769">
        <ele>798.7</ele>
        <time>2013-11-13T13:22:51Z</time>
      </trkpt>
      <trkpt lat="43.65592" lon="6.26759">
        <ele>799.2</ele>
        <time>2013-11-13T13:22:59Z</time>
      </trkpt>
      <trkpt lat="43.65595" lon="6.26747">
        <ele>799.3</ele>
        <time>2013-11-13T13:23:04Z</time>
      </trkpt>
      <trkpt lat="43.65598" lon="6.26737">
        <ele>799.4</ele>
        <time>2013-11-13T13:23:09Z</time>
      </trkpt>
      <trkpt lat="43.65599" lon="6.26735">
        <ele>799.3</ele>
        <time>2013-11-13T13:23:10Z</time>
      </trkpt>
      <trkpt lat="43.65611" lon="6.26722">
        <ele>799.4</ele>
        <time>2013-11-13T13:23:21Z</time>
      </trkpt>
      <trkpt lat="43.65617" lon="6.26714">
        <ele>797.5</ele>
        <time>2013-11-13T13:23:27Z</time>
      </trkpt>
      <trkpt lat="43.65623" lon="6.26706">
        <ele>798.3</ele>
        <time>2013-11-13T13:23:34Z</time>
      </trkpt>
      <trkpt lat="43.65629" lon="6.26698">
        <ele>796.6</ele>
        <time>2013-11-13T13:23:42Z</time>
      </trkpt>
      <trkpt lat="43.65631" lon="6.26688">
        <ele>797.3</ele>
        <time>2013-11-13T13:23:57Z</time>
      </trkpt>
      <trkpt lat="43.65632" lon="6.26676">
        <ele>799.9</ele>
        <time>2013-11-13T13:24:04Z</time>
      </trkpt>
      <trkpt lat="43.65633" lon="6.26665">
        <ele>799.5</ele>
        <time>2013-11-13T13:24:11Z</time>
      </trkpt>
      <trkpt lat="43.65633" lon="6.26663">
        <ele>799.8</ele>
        <time>2013-11-13T13:24:12Z</time>
      </trkpt>
      <trkpt lat="43.65631" lon="6.26641">
        <ele>802.1</ele>
        <time>2013-11-13T13:24:35Z</time>
      </trkpt>
      <trkpt lat="43.65632" lon="6.26631">
        <ele>802.2</ele>
        <time>2013-11-13T13:24:42Z</time>
      </trkpt>
      <trkpt lat="43.65631" lon="6.2662">
        <ele>803.5</ele>
        <time>2013-11-13T13:24:50Z</time>
      </trkpt>
      <trkpt lat="43.65631" lon="6.26609">
        <ele>803.3</ele>
        <time>2013-11-13T13:24:56Z</time>
      </trkpt>
      <trkpt lat="43.6563" lon="6.26597">
        <ele>802.9</ele>
        <time>2013-11-13T13:25:05Z</time>
      </trkpt>
      <trkpt lat="43.6563" lon="6.26585">
        <ele>804.4</ele>
        <time>2013-11-13T13:25:15Z</time>
      </trkpt>
      <trkpt lat="43.6563" lon="6.26584">
        <ele>805.3</ele>
        <time>2013-11-13T13:25:16Z</time>
      </trkpt>
      <trkpt lat="43.65628" lon="6.26561">
        <ele>804.7</ele>
        <time>2013-11-13T13:25:37Z</time>
      </trkpt>
      <trkpt lat="43.65628" lon="6.2655">
        <ele>805.3</ele>
        <time>2013-11-13T13:25:44Z</time>
      </trkpt>
      <trkpt lat="43.65629" lon="6.26538">
        <ele>807</ele>
        <time>2013-11-13T13:25:51Z</time>
      </trkpt>
      <trkpt lat="43.65626" lon="6.26526">
        <ele>807.9</ele>
        <time>2013-11-13T13:26:00Z</time>
      </trkpt>
      <trkpt lat="43.65621" lon="6.26516">
        <ele>808.9</ele>
        <time>2013-11-13T13:26:10Z</time>
      </trkpt>
      <trkpt lat="43.65616" lon="6.26506">
        <ele>809</ele>
        <time>2013-11-13T13:26:19Z</time>
      </trkpt>
      <trkpt lat="43.65616" lon="6.26505">
        <ele>809.6</ele>
        <time>2013-11-13T13:26:20Z</time>
      </trkpt>
      <trkpt lat="43.65607" lon="6.26487">
        <ele>810.9</ele>
        <time>2013-11-13T13:26:40Z</time>
      </trkpt>
      <trkpt lat="43.656" lon="6.2648">
        <ele>812.1</ele>
        <time>2013-11-13T13:26:50Z</time>
      </trkpt>
      <trkpt lat="43.65592" lon="6.26475">
        <ele>812.6</ele>
        <time>2013-11-13T13:27:00Z</time>
      </trkpt>
      <trkpt lat="43.65584" lon="6.2647">
        <ele>813.7</ele>
        <time>2013-11-13T13:27:10Z</time>
      </trkpt>
      <trkpt lat="43.65577" lon="6.26463">
        <ele>815.4</ele>
        <time>2013-11-13T13:27:22Z</time>
      </trkpt>
      <trkpt lat="43.65576" lon="6.26463">
        <ele>815.3</ele>
        <time>2013-11-13T13:27:23Z</time>
      </trkpt>
      <trkpt lat="43.65561" lon="6.26454">
        <ele>817</ele>
        <time>2013-11-13T13:27:44Z</time>
      </trkpt>
      <trkpt lat="43.65554" lon="6.26446">
        <ele>817.9</ele>
        <time>2013-11-13T13:27:52Z</time>
      </trkpt>
      <trkpt lat="43.65545" lon="6.26444">
        <ele>818.7</ele>
        <time>2013-11-13T13:28:01Z</time>
      </trkpt>
      <trkpt lat="43.65537" lon="6.26439">
        <ele>819.5</ele>
        <time>2013-11-13T13:28:08Z</time>
      </trkpt>
      <trkpt lat="43.6553" lon="6.26434">
        <ele>820.6</ele>
        <time>2013-11-13T13:28:18Z</time>
      </trkpt>
      <trkpt lat="43.65522" lon="6.26429">
        <ele>821.1</ele>
        <time>2013-11-13T13:28:28Z</time>
      </trkpt>
      <trkpt lat="43.65521" lon="6.26429">
        <ele>822</ele>
        <time>2013-11-13T13:28:29Z</time>
      </trkpt>
      <trkpt lat="43.65508" lon="6.26415">
        <ele>823</ele>
        <time>2013-11-13T13:28:47Z</time>
      </trkpt>
      <trkpt lat="43.65503" lon="6.26405">
        <ele>824.4</ele>
        <time>2013-11-13T13:28:56Z</time>
      </trkpt>
      <trkpt lat="43.65495" lon="6.26402">
        <ele>827.2</ele>
        <time>2013-11-13T13:29:05Z</time>
      </trkpt>
      <trkpt lat="43.65486" lon="6.264">
        <ele>828.1</ele>
        <time>2013-11-13T13:29:12Z</time>
      </trkpt>
      <trkpt lat="43.65478" lon="6.26394">
        <ele>829</ele>
        <time>2013-11-13T13:29:23Z</time>
      </trkpt>
      <trkpt lat="43.65473" lon="6.26385">
        <ele>830.4</ele>
        <time>2013-11-13T13:29:35Z</time>
      </trkpt>
      <trkpt lat="43.65473" lon="6.26383">
        <ele>830.5</ele>
        <time>2013-11-13T13:29:36Z</time>
      </trkpt>
      <trkpt lat="43.6547" lon="6.26361">
        <ele>832.4</ele>
        <time>2013-11-13T13:29:54Z</time>
      </trkpt>
      <trkpt lat="43.65464" lon="6.26354">
        <ele>834.4</ele>
        <time>2013-11-13T13:30:09Z</time>
      </trkpt>
      <trkpt lat="43.65457" lon="6.26349">
        <ele>834.7</ele>
        <time>2013-11-13T13:30:17Z</time>
      </trkpt>
      <trkpt lat="43.65449" lon="6.26345">
        <ele>834.1</ele>
        <time>2013-11-13T13:30:26Z</time>
      </trkpt>
      <trkpt lat="43.65441" lon="6.26341">
        <ele>835.2</ele>
        <time>2013-11-13T13:30:34Z</time>
      </trkpt>
      <trkpt lat="43.65434" lon="6.26334">
        <ele>835</ele>
        <time>2013-11-13T13:30:43Z</time>
      </trkpt>
      <trkpt lat="43.65433" lon="6.26333">
        <ele>835.1</ele>
        <time>2013-11-13T13:30:44Z</time>
      </trkpt>
      <trkpt lat="43.65427" lon="6.26314">
        <ele>834.4</ele>
        <time>2013-11-13T13:30:59Z</time>
      </trkpt>
      <trkpt lat="43.65427" lon="6.26303">
        <ele>834.9</ele>
        <time>2013-11-13T13:31:05Z</time>
      </trkpt>
      <trkpt lat="43.65429" lon="6.26291">
        <ele>835.2</ele>
        <time>2013-11-13T13:31:15Z</time>
      </trkpt>
      <trkpt lat="43.65425" lon="6.26279">
        <ele>837.5</ele>
        <time>2013-11-13T13:31:26Z</time>
      </trkpt>
      <trkpt lat="43.65419" lon="6.26272">
        <ele>839.8</ele>
        <time>2013-11-13T13:31:40Z</time>
      </trkpt>
      <trkpt lat="43.65414" lon="6.26263">
        <ele>840.2</ele>
        <time>2013-11-13T13:31:47Z</time>
      </trkpt>
      <trkpt lat="43.65413" lon="6.26261">
        <ele>840.5</ele>
        <time>2013-11-13T13:31:48Z</time>
      </trkpt>
      <trkpt lat="43.65416" lon="6.26241">
        <ele>841.6</ele>
        <time>2013-11-13T13:31:59Z</time>
      </trkpt>
      <trkpt lat="43.65418" lon="6.2623">
        <ele>842.6</ele>
        <time>2013-11-13T13:32:11Z</time>
      </trkpt>
      <trkpt lat="43.65418" lon="6.26218">
        <ele>846.6</ele>
        <time>2013-11-13T13:32:23Z</time>
      </trkpt>
      <trkpt lat="43.65417" lon="6.26206">
        <ele>848.4</ele>
        <time>2013-11-13T13:32:38Z</time>
      </trkpt>
      <trkpt lat="43.65415" lon="6.26194">
        <ele>852.6</ele>
        <time>2013-11-13T13:32:53Z</time>
      </trkpt>
      <trkpt lat="43.65414" lon="6.26193">
        <ele>853</ele>
        <time>2013-11-13T13:32:54Z</time>
      </trkpt>
      <trkpt lat="43.65399" lon="6.26185">
        <ele>856.2</ele>
        <time>2013-11-13T13:33:21Z</time>
      </trkpt>
      <trkpt lat="43.65392" lon="6.26177">
        <ele>858.1</ele>
        <time>2013-11-13T13:33:34Z</time>
      </trkpt>
      <trkpt lat="43.65391" lon="6.26165">
        <ele>858.8</ele>
        <time>2013-11-13T13:33:50Z</time>
      </trkpt>
      <trkpt lat="43.6539" lon="6.26153">
        <ele>860.9</ele>
        <time>2013-11-13T13:34:09Z</time>
      </trkpt>
      <trkpt lat="43.6539" lon="6.26152">
        <ele>860.8</ele>
        <time>2013-11-13T13:34:10Z</time>
      </trkpt>
      <trkpt lat="43.65395" lon="6.2613">
        <ele>865.2</ele>
        <time>2013-11-13T13:34:35Z</time>
      </trkpt>
      <trkpt lat="43.65399" lon="6.26119">
        <ele>866.5</ele>
        <time>2013-11-13T13:34:52Z</time>
      </trkpt>
      <trkpt lat="43.65404" lon="6.2611">
        <ele>867.7</ele>
        <time>2013-11-13T13:35:04Z</time>
      </trkpt>
      <trkpt lat="43.65408" lon="6.261">
        <ele>867.7</ele>
        <time>2013-11-13T13:36:04Z</time>
      </trkpt>
      <trkpt lat="43.65409" lon="6.26099">
        <ele>867.7</ele>
        <time>2013-11-13T13:36:05Z</time>
      </trkpt>
      <trkpt lat="43.6541" lon="6.26076">
        <ele>874.5</ele>
        <time>2013-11-13T13:37:03Z</time>
      </trkpt>
      <trkpt lat="43.65407" lon="6.26064">
        <ele>877.1</ele>
        <time>2013-11-13T13:37:24Z</time>
      </trkpt>
      <trkpt lat="43.65407" lon="6.26064">
        <ele>877.4</ele>
        <time>2013-11-13T13:37:25Z</time>
      </trkpt>
      <trkpt lat="43.65392" lon="6.26054">
        <ele>881.2</ele>
        <time>2013-11-13T13:38:08Z</time>
      </trkpt>
      <trkpt lat="43.65385" lon="6.26047">
        <ele>882</ele>
        <time>2013-11-13T13:38:17Z</time>
      </trkpt>
      <trkpt lat="43.65378" lon="6.2604">
        <ele>882.5</ele>
        <time>2013-11-13T13:38:24Z</time>
      </trkpt>
      <trkpt lat="43.65377" lon="6.2604">
        <ele>882.5</ele>
        <time>2013-11-13T13:38:25Z</time>
      </trkpt>
      <trkpt lat="43.65368" lon="6.26022">
        <ele>881.2</ele>
        <time>2013-11-13T13:38:37Z</time>
      </trkpt>
      <trkpt lat="43.65363" lon="6.26013">
        <ele>880.8</ele>
        <time>2013-11-13T13:38:43Z</time>
      </trkpt>
      <trkpt lat="43.6536" lon="6.26003">
        <ele>880.3</ele>
        <time>2013-11-13T13:38:48Z</time>
      </trkpt>
      <trkpt lat="43.65357" lon="6.25993">
        <ele>881.6</ele>
        <time>2013-11-13T13:38:53Z</time>
      </trkpt>
      <trkpt lat="43.65355" lon="6.25981">
        <ele>881.9</ele>
        <time>2013-11-13T13:38:58Z</time>
      </trkpt>
      <trkpt lat="43.65349" lon="6.25972">
        <ele>881.1</ele>
        <time>2013-11-13T13:39:04Z</time>
      </trkpt>
      <trkpt lat="43.65343" lon="6.25964">
        <ele>881.2</ele>
        <time>2013-11-13T13:39:09Z</time>
      </trkpt>
      <trkpt lat="43.65338" lon="6.25955">
        <ele>881.6</ele>
        <time>2013-11-13T13:39:17Z</time>
      </trkpt>
      <trkpt lat="43.65332" lon="6.25947">
        <ele>882</ele>
        <time>2013-11-13T13:39:27Z</time>
      </trkpt>
      <trkpt lat="43.65331" lon="6.25946">
        <ele>881.7</ele>
        <time>2013-11-13T13:39:28Z</time>
      </trkpt>
      <trkpt lat="43.65319" lon="6.25929">
        <ele>885.5</ele>
        <time>2013-11-13T13:39:46Z</time>
      </trkpt>
      <trkpt lat="43.65314" lon="6.2592">
        <ele>885.3</ele>
        <time>2013-11-13T13:39:58Z</time>
      </trkpt>
      <trkpt lat="43.65307" lon="6.25916">
        <ele>885</ele>
        <time>2013-11-13T13:40:05Z</time>
      </trkpt>
      <trkpt lat="43.65299" lon="6.2591">
        <ele>886</ele>
        <time>2013-11-13T13:40:11Z</time>
      </trkpt>
      <trkpt lat="43.65292" lon="6.25906">
        <ele>885.1</ele>
        <time>2013-11-13T13:40:16Z</time>
      </trkpt>
      <trkpt lat="43.65285" lon="6.25899">
        <ele>886.4</ele>
        <time>2013-11-13T13:40:23Z</time>
      </trkpt>
      <trkpt lat="43.65278" lon="6.25893">
        <ele>887.8</ele>
        <time>2013-11-13T13:40:30Z</time>
      </trkpt>
      <trkpt lat="43.65277" lon="6.25891">
        <ele>887.4</ele>
        <time>2013-11-13T13:40:31Z</time>
      </trkpt>
      <trkpt lat="43.65264" lon="6.25881">
        <ele>889.1</ele>
        <time>2013-11-13T13:40:45Z</time>
      </trkpt>
      <trkpt lat="43.65258" lon="6.25871">
        <ele>889.9</ele>
        <time>2013-11-13T13:40:55Z</time>
      </trkpt>
      <trkpt lat="43.65251" lon="6.25864">
        <ele>890.1</ele>
        <time>2013-11-13T13:41:04Z</time>
      </trkpt>
      <trkpt lat="43.65245" lon="6.25857">
        <ele>891.9</ele>
        <time>2013-11-13T13:41:14Z</time>
      </trkpt>
      <trkpt lat="43.65242" lon="6.25845">
        <ele>894.5</ele>
        <time>2013-11-13T13:41:24Z</time>
      </trkpt>
      <trkpt lat="43.65239" lon="6.25835">
        <ele>894.8</ele>
        <time>2013-11-13T13:41:32Z</time>
      </trkpt>
      <trkpt lat="43.65239" lon="6.25833">
        <ele>894.9</ele>
        <time>2013-11-13T13:41:33Z</time>
      </trkpt>
      <trkpt lat="43.65242" lon="6.25812">
        <ele>896</ele>
        <time>2013-11-13T13:41:49Z</time>
      </trkpt>
      <trkpt lat="43.65245" lon="6.25801">
        <ele>899.6</ele>
        <time>2013-11-13T13:41:58Z</time>
      </trkpt>
      <trkpt lat="43.65249" lon="6.2579">
        <ele>900.6</ele>
        <time>2013-11-13T13:42:08Z</time>
      </trkpt>
      <trkpt lat="43.65254" lon="6.25781">
        <ele>902.1</ele>
        <time>2013-11-13T13:42:20Z</time>
      </trkpt>
      <trkpt lat="43.65259" lon="6.25771">
        <ele>904.4</ele>
        <time>2013-11-13T13:42:29Z</time>
      </trkpt>
      <trkpt lat="43.65265" lon="6.25763">
        <ele>905.3</ele>
        <time>2013-11-13T13:42:38Z</time>
      </trkpt>
      <trkpt lat="43.65266" lon="6.25762">
        <ele>905.4</ele>
        <time>2013-11-13T13:42:39Z</time>
      </trkpt>
      <trkpt lat="43.65281" lon="6.25753">
        <ele>908.4</ele>
        <time>2013-11-13T13:42:57Z</time>
      </trkpt>
      <trkpt lat="43.65289" lon="6.25751">
        <ele>909.8</ele>
        <time>2013-11-13T13:43:05Z</time>
      </trkpt>
      <trkpt lat="43.65296" lon="6.25743">
        <ele>912.4</ele>
        <time>2013-11-13T13:43:19Z</time>
      </trkpt>
      <trkpt lat="43.65301" lon="6.25733">
        <ele>914.1</ele>
        <time>2013-11-13T13:43:30Z</time>
      </trkpt>
      <trkpt lat="43.65305" lon="6.25722">
        <ele>915.4</ele>
        <time>2013-11-13T13:43:42Z</time>
      </trkpt>
      <trkpt lat="43.65305" lon="6.25721">
        <ele>915.2</ele>
        <time>2013-11-13T13:43:43Z</time>
      </trkpt>
      <trkpt lat="43.65303" lon="6.25699">
        <ele>919.6</ele>
        <time>2013-11-13T13:44:09Z</time>
      </trkpt>
      <trkpt lat="43.65301" lon="6.25688">
        <ele>920.8</ele>
        <time>2013-11-13T13:44:21Z</time>
      </trkpt>
      <trkpt lat="43.65297" lon="6.25677">
        <ele>921.2</ele>
        <time>2013-11-13T13:44:33Z</time>
      </trkpt>
      <trkpt lat="43.65293" lon="6.25666">
        <ele>920.5</ele>
        <time>2013-11-13T13:44:41Z</time>
      </trkpt>
      <trkpt lat="43.6529" lon="6.25655">
        <ele>923.2</ele>
        <time>2013-11-13T13:44:51Z</time>
      </trkpt>
      <trkpt lat="43.6529" lon="6.25653">
        <ele>923.1</ele>
        <time>2013-11-13T13:44:52Z</time>
      </trkpt>
      <trkpt lat="43.65291" lon="6.25632">
        <ele>925.3</ele>
        <time>2013-11-13T13:45:10Z</time>
      </trkpt>
      <trkpt lat="43.65293" lon="6.25622">
        <ele>926.1</ele>
        <time>2013-11-13T13:45:15Z</time>
      </trkpt>
      <trkpt lat="43.65296" lon="6.25612">
        <ele>926.2</ele>
        <time>2013-11-13T13:45:21Z</time>
      </trkpt>
      <trkpt lat="43.653" lon="6.25602">
        <ele>927</ele>
        <time>2013-11-13T13:45:30Z</time>
      </trkpt>
      <trkpt lat="43.65305" lon="6.25593">
        <ele>928.6</ele>
        <time>2013-11-13T13:45:39Z</time>
      </trkpt>
      <trkpt lat="43.65308" lon="6.25582">
        <ele>929.2</ele>
        <time>2013-11-13T13:45:47Z</time>
      </trkpt>
      <trkpt lat="43.65309" lon="6.25572">
        <ele>929.8</ele>
        <time>2013-11-13T13:45:53Z</time>
      </trkpt>
      <trkpt lat="43.6531" lon="6.25569">
        <ele>930.1</ele>
        <time>2013-11-13T13:45:54Z</time>
      </trkpt>
      <trkpt lat="43.65312" lon="6.2555">
        <ele>931.3</ele>
        <time>2013-11-13T13:46:03Z</time>
      </trkpt>
      <trkpt lat="43.65314" lon="6.25538">
        <ele>930.3</ele>
        <time>2013-11-13T13:46:15Z</time>
      </trkpt>
      <trkpt lat="43.65314" lon="6.25526">
        <ele>932.4</ele>
        <time>2013-11-13T13:46:25Z</time>
      </trkpt>
      <trkpt lat="43.65314" lon="6.25514">
        <ele>932.8</ele>
        <time>2013-11-13T13:46:33Z</time>
      </trkpt>
      <trkpt lat="43.65315" lon="6.25503">
        <ele>933.9</ele>
        <time>2013-11-13T13:46:40Z</time>
      </trkpt>
      <trkpt lat="43.65315" lon="6.25492">
        <ele>934.3</ele>
        <time>2013-11-13T13:46:47Z</time>
      </trkpt>
      <trkpt lat="43.65316" lon="6.25481">
        <ele>935.3</ele>
        <time>2013-11-13T13:46:59Z</time>
      </trkpt>
      <trkpt lat="43.65315" lon="6.25479">
        <ele>935.2</ele>
        <time>2013-11-13T13:47:00Z</time>
      </trkpt>
      <trkpt lat="43.65319" lon="6.25459">
        <ele>934.4</ele>
        <time>2013-11-13T13:47:20Z</time>
      </trkpt>
      <trkpt lat="43.65327" lon="6.25457">
        <ele>936.2</ele>
        <time>2013-11-13T13:48:02Z</time>
      </trkpt>
      <trkpt lat="43.65328" lon="6.25457">
        <ele>936.2</ele>
        <time>2013-11-13T13:48:03Z</time>
      </trkpt>
      <trkpt lat="43.65314" lon="6.25456">
        <ele>938.4</ele>
        <time>2013-11-13T13:49:10Z</time>
      </trkpt>
      <trkpt lat="43.65314" lon="6.25455">
        <ele>938.7</ele>
        <time>2013-11-13T13:49:11Z</time>
      </trkpt>
      <trkpt lat="43.65327" lon="6.25444">
        <ele>940.4</ele>
        <time>2013-11-13T13:50:00Z</time>
      </trkpt>
      <trkpt lat="43.65318" lon="6.25443">
        <ele>943.8</ele>
        <time>2013-11-13T13:50:33Z</time>
      </trkpt>
      <trkpt lat="43.65318" lon="6.25442">
        <ele>944.1</ele>
        <time>2013-11-13T13:50:34Z</time>
      </trkpt>
      <trkpt lat="43.65318" lon="6.25418">
        <ele>943.6</ele>
        <time>2013-11-13T13:50:56Z</time>
      </trkpt>
      <trkpt lat="43.65317" lon="6.25407">
        <ele>946.5</ele>
        <time>2013-11-13T13:51:02Z</time>
      </trkpt>
      <trkpt lat="43.65317" lon="6.25396">
        <ele>946.7</ele>
        <time>2013-11-13T13:51:11Z</time>
      </trkpt>
      <trkpt lat="43.65317" lon="6.25384">
        <ele>947.6</ele>
        <time>2013-11-13T13:51:21Z</time>
      </trkpt>
      <trkpt lat="43.65317" lon="6.25373">
        <ele>948</ele>
        <time>2013-11-13T13:51:27Z</time>
      </trkpt>
      <trkpt lat="43.65316" lon="6.25361">
        <ele>950.3</ele>
        <time>2013-11-13T13:51:35Z</time>
      </trkpt>
      <trkpt lat="43.65316" lon="6.2536">
        <ele>950.5</ele>
        <time>2013-11-13T13:51:36Z</time>
      </trkpt>
      <trkpt lat="43.65316" lon="6.25341">
        <ele>952.9</ele>
        <time>2013-11-13T13:51:46Z</time>
      </trkpt>
      <trkpt lat="43.6532" lon="6.2533">
        <ele>953.5</ele>
        <time>2013-11-13T13:51:52Z</time>
      </trkpt>
      <trkpt lat="43.65325" lon="6.2532">
        <ele>956.1</ele>
        <time>2013-11-13T13:52:02Z</time>
      </trkpt>
      <trkpt lat="43.65331" lon="6.25312">
        <ele>957</ele>
        <time>2013-11-13T13:52:14Z</time>
      </trkpt>
      <trkpt lat="43.65335" lon="6.25302">
        <ele>959.5</ele>
        <time>2013-11-13T13:52:23Z</time>
      </trkpt>
      <trkpt lat="43.65338" lon="6.25292">
        <ele>962</ele>
        <time>2013-11-13T13:52:35Z</time>
      </trkpt>
      <trkpt lat="43.65339" lon="6.25291">
        <ele>962.4</ele>
        <time>2013-11-13T13:52:36Z</time>
      </trkpt>
      <trkpt lat="43.65347" lon="6.25271">
        <ele>967.3</ele>
        <time>2013-11-13T13:53:02Z</time>
      </trkpt>
      <trkpt lat="43.65347" lon="6.25259">
        <ele>968.7</ele>
        <time>2013-11-13T13:53:15Z</time>
      </trkpt>
      <trkpt lat="43.65348" lon="6.25247">
        <ele>969.9</ele>
        <time>2013-11-13T13:53:23Z</time>
      </trkpt>
      <trkpt lat="43.65349" lon="6.25236">
        <ele>971.3</ele>
        <time>2013-11-13T13:53:30Z</time>
      </trkpt>
      <trkpt lat="43.65352" lon="6.25225">
        <ele>971.8</ele>
        <time>2013-11-13T13:53:35Z</time>
      </trkpt>
      <trkpt lat="43.65356" lon="6.25214">
        <ele>972.6</ele>
        <time>2013-11-13T13:53:42Z</time>
      </trkpt>
      <trkpt lat="43.65357" lon="6.25213">
        <ele>972.7</ele>
        <time>2013-11-13T13:53:43Z</time>
      </trkpt>
      <trkpt lat="43.65367" lon="6.25198">
        <ele>974.1</ele>
        <time>2013-11-13T13:53:58Z</time>
      </trkpt>
      <trkpt lat="43.6537" lon="6.25187">
        <ele>974.6</ele>
        <time>2013-11-13T13:54:07Z</time>
      </trkpt>
      <trkpt lat="43.65369" lon="6.25175">
        <ele>975.2</ele>
        <time>2013-11-13T13:54:21Z</time>
      </trkpt>
      <trkpt lat="43.65368" lon="6.25163">
        <ele>977.5</ele>
        <time>2013-11-13T13:54:31Z</time>
      </trkpt>
      <trkpt lat="43.65366" lon="6.25151">
        <ele>977.2</ele>
        <time>2013-11-13T13:54:40Z</time>
      </trkpt>
      <trkpt lat="43.65363" lon="6.25141">
        <ele>978.7</ele>
        <time>2013-11-13T13:54:48Z</time>
      </trkpt>
      <trkpt lat="43.65363" lon="6.25139">
        <ele>979.1</ele>
        <time>2013-11-13T13:54:49Z</time>
      </trkpt>
      <trkpt lat="43.65359" lon="6.25118">
        <ele>979.5</ele>
        <time>2013-11-13T13:55:02Z</time>
      </trkpt>
      <trkpt lat="43.6536" lon="6.25105">
        <ele>981</ele>
        <time>2013-11-13T13:55:09Z</time>
      </trkpt>
      <trkpt lat="43.6536" lon="6.25094">
        <ele>982.5</ele>
        <time>2013-11-13T13:55:16Z</time>
      </trkpt>
      <trkpt lat="43.65361" lon="6.25084">
        <ele>982.6</ele>
        <time>2013-11-13T13:55:23Z</time>
      </trkpt>
      <trkpt lat="43.65363" lon="6.25072">
        <ele>982.8</ele>
        <time>2013-11-13T13:55:30Z</time>
      </trkpt>
      <trkpt lat="43.65366" lon="6.25061">
        <ele>983.3</ele>
        <time>2013-11-13T13:55:37Z</time>
      </trkpt>
      <trkpt lat="43.65365" lon="6.25049">
        <ele>986.8</ele>
        <time>2013-11-13T13:55:49Z</time>
      </trkpt>
      <trkpt lat="43.65364" lon="6.25048">
        <ele>986.6</ele>
        <time>2013-11-13T13:55:50Z</time>
      </trkpt>
      <trkpt lat="43.65359" lon="6.25027">
        <ele>990.9</ele>
        <time>2013-11-13T13:56:17Z</time>
      </trkpt>
      <trkpt lat="43.65358" lon="6.25015">
        <ele>991.7</ele>
        <time>2013-11-13T13:56:28Z</time>
      </trkpt>
      <trkpt lat="43.65355" lon="6.25004">
        <ele>992.6</ele>
        <time>2013-11-13T13:56:37Z</time>
      </trkpt>
      <trkpt lat="43.65355" lon="6.24992">
        <ele>993.6</ele>
        <time>2013-11-13T13:56:47Z</time>
      </trkpt>
      <trkpt lat="43.65353" lon="6.24981">
        <ele>994.5</ele>
        <time>2013-11-13T13:56:57Z</time>
      </trkpt>
      <trkpt lat="43.65353" lon="6.2498">
        <ele>994.6</ele>
        <time>2013-11-13T13:56:58Z</time>
      </trkpt>
      <trkpt lat="43.6536" lon="6.24959">
        <ele>999</ele>
        <time>2013-11-13T13:58:34Z</time>
      </trkpt>
      <trkpt lat="43.65361" lon="6.24959">
        <ele>999.4</ele>
        <time>2013-11-13T13:58:35Z</time>
      </trkpt>
      <trkpt lat="43.65354" lon="6.24969">
        <ele>1002.2</ele>
        <time>2013-11-13T13:59:52Z</time>
      </trkpt>
      <trkpt lat="43.65361" lon="6.2496">
        <ele>1008.8</ele>
        <time>2013-11-13T14:03:00Z</time>
      </trkpt>
      <trkpt lat="43.6536" lon="6.24973">
        <ele>1017.3</ele>
        <time>2013-11-13T14:08:37Z</time>
      </trkpt>
      <trkpt lat="43.65365" lon="6.24995">
        <ele>1016</ele>
        <time>2013-11-13T14:09:01Z</time>
      </trkpt>
      <trkpt lat="43.65366" lon="6.25006">
        <ele>1016.5</ele>
        <time>2013-11-13T14:09:11Z</time>
      </trkpt>
      <trkpt lat="43.65369" lon="6.25017">
        <ele>1014.5</ele>
        <time>2013-11-13T14:09:22Z</time>
      </trkpt>
      <trkpt lat="43.65371" lon="6.25029">
        <ele>1013.9</ele>
        <time>2013-11-13T14:09:31Z</time>
      </trkpt>
      <trkpt lat="43.65375" lon="6.2504">
        <ele>1013.1</ele>
        <time>2013-11-13T14:09:39Z</time>
      </trkpt>
      <trkpt lat="43.65375" lon="6.25042">
        <ele>1013.1</ele>
        <time>2013-11-13T14:09:40Z</time>
      </trkpt>
      <trkpt lat="43.65374" lon="6.25063">
        <ele>1011.6</ele>
        <time>2013-11-13T14:09:58Z</time>
      </trkpt>
      <trkpt lat="43.65372" lon="6.25075">
        <ele>1009.1</ele>
        <time>2013-11-13T14:10:09Z</time>
      </trkpt>
      <trkpt lat="43.65373" lon="6.25087">
        <ele>1007.9</ele>
        <time>2013-11-13T14:10:18Z</time>
      </trkpt>
      <trkpt lat="43.65375" lon="6.25097">
        <ele>1007.2</ele>
        <time>2013-11-13T14:10:24Z</time>
      </trkpt>
      <trkpt lat="43.65376" lon="6.25109">
        <ele>1006.6</ele>
        <time>2013-11-13T14:10:32Z</time>
      </trkpt>
      <trkpt lat="43.65379" lon="6.2512">
        <ele>1006.8</ele>
        <time>2013-11-13T14:10:40Z</time>
      </trkpt>
      <trkpt lat="43.65379" lon="6.25121">
        <ele>1005.6</ele>
        <time>2013-11-13T14:10:41Z</time>
      </trkpt>
      <trkpt lat="43.65383" lon="6.25144">
        <ele>1004.7</ele>
        <time>2013-11-13T14:11:03Z</time>
      </trkpt>
      <trkpt lat="43.65385" lon="6.25155">
        <ele>1004.8</ele>
        <time>2013-11-13T14:11:10Z</time>
      </trkpt>
      <trkpt lat="43.65385" lon="6.25167">
        <ele>1005.8</ele>
        <time>2013-11-13T14:11:17Z</time>
      </trkpt>
      <trkpt lat="43.65384" lon="6.25178">
        <ele>1004.6</ele>
        <time>2013-11-13T14:11:25Z</time>
      </trkpt>
      <trkpt lat="43.6538" lon="6.25188">
        <ele>1004.8</ele>
        <time>2013-11-13T14:11:31Z</time>
      </trkpt>
      <trkpt lat="43.65375" lon="6.25197">
        <ele>1004.2</ele>
        <time>2013-11-13T14:11:39Z</time>
      </trkpt>
      <trkpt lat="43.6537" lon="6.25206">
        <ele>1003.4</ele>
        <time>2013-11-13T14:11:47Z</time>
      </trkpt>
      <trkpt lat="43.6537" lon="6.25208">
        <ele>1003.3</ele>
        <time>2013-11-13T14:11:48Z</time>
      </trkpt>
      <trkpt lat="43.65361" lon="6.25225">
        <ele>1001.7</ele>
        <time>2013-11-13T14:12:05Z</time>
      </trkpt>
      <trkpt lat="43.6536" lon="6.25235">
        <ele>1001.4</ele>
        <time>2013-11-13T14:12:13Z</time>
      </trkpt>
      <trkpt lat="43.65359" lon="6.25247">
        <ele>999.5</ele>
        <time>2013-11-13T14:12:23Z</time>
      </trkpt>
      <trkpt lat="43.65358" lon="6.25258">
        <ele>997.6</ele>
        <time>2013-11-13T14:12:34Z</time>
      </trkpt>
      <trkpt lat="43.65354" lon="6.25269">
        <ele>994.4</ele>
        <time>2013-11-13T14:12:46Z</time>
      </trkpt>
      <trkpt lat="43.65351" lon="6.2528">
        <ele>991</ele>
        <time>2013-11-13T14:12:59Z</time>
      </trkpt>
      <trkpt lat="43.65351" lon="6.25281">
        <ele>990.9</ele>
        <time>2013-11-13T14:13:00Z</time>
      </trkpt>
      <trkpt lat="43.65346" lon="6.25302">
        <ele>989</ele>
        <time>2013-11-13T14:13:21Z</time>
      </trkpt>
      <trkpt lat="43.65343" lon="6.25313">
        <ele>988.6</ele>
        <time>2013-11-13T14:13:32Z</time>
      </trkpt>
      <trkpt lat="43.65338" lon="6.25323">
        <ele>987.1</ele>
        <time>2013-11-13T14:13:43Z</time>
      </trkpt>
      <trkpt lat="43.65335" lon="6.25332">
        <ele>986</ele>
        <time>2013-11-13T14:13:50Z</time>
      </trkpt>
      <trkpt lat="43.65334" lon="6.25344">
        <ele>984.9</ele>
        <time>2013-11-13T14:13:58Z</time>
      </trkpt>
      <trkpt lat="43.65331" lon="6.25354">
        <ele>983.5</ele>
        <time>2013-11-13T14:14:07Z</time>
      </trkpt>
      <trkpt lat="43.65331" lon="6.25355">
        <ele>983.5</ele>
        <time>2013-11-13T14:14:08Z</time>
      </trkpt>
      <trkpt lat="43.65332" lon="6.25378">
        <ele>981</ele>
        <time>2013-11-13T14:14:28Z</time>
      </trkpt>
      <trkpt lat="43.65332" lon="6.2539">
        <ele>981.3</ele>
        <time>2013-11-13T14:14:38Z</time>
      </trkpt>
      <trkpt lat="43.65331" lon="6.25402">
        <ele>980</ele>
        <time>2013-11-13T14:14:45Z</time>
      </trkpt>
      <trkpt lat="43.6533" lon="6.25413">
        <ele>980.1</ele>
        <time>2013-11-13T14:14:56Z</time>
      </trkpt>
      <trkpt lat="43.6533" lon="6.25425">
        <ele>980.5</ele>
        <time>2013-11-13T14:15:06Z</time>
      </trkpt>
      <trkpt lat="43.65331" lon="6.25436">
        <ele>979.3</ele>
        <time>2013-11-13T14:15:12Z</time>
      </trkpt>
      <trkpt lat="43.65331" lon="6.25438">
        <ele>979.4</ele>
        <time>2013-11-13T14:15:13Z</time>
      </trkpt>
      <trkpt lat="43.65323" lon="6.25456">
        <ele>980.2</ele>
        <time>2013-11-13T14:15:44Z</time>
      </trkpt>
      <trkpt lat="43.65316" lon="6.25464">
        <ele>979.9</ele>
        <time>2013-11-13T14:16:04Z</time>
      </trkpt>
      <trkpt lat="43.65308" lon="6.2546">
        <ele>980.5</ele>
        <time>2013-11-13T14:16:31Z</time>
      </trkpt>
      <trkpt lat="43.65307" lon="6.25459">
        <ele>980.9</ele>
        <time>2013-11-13T14:16:32Z</time>
      </trkpt>
      <trkpt lat="43.65293" lon="6.25456">
        <ele>980.3</ele>
        <time>2013-11-13T14:17:11Z</time>
      </trkpt>
      <trkpt lat="43.65285" lon="6.25463">
        <ele>979.7</ele>
        <time>2013-11-13T14:17:21Z</time>
      </trkpt>
      <trkpt lat="43.65279" lon="6.25471">
        <ele>980.4</ele>
        <time>2013-11-13T14:17:30Z</time>
      </trkpt>
      <trkpt lat="43.65271" lon="6.25476">
        <ele>980</ele>
        <time>2013-11-13T14:17:41Z</time>
      </trkpt>
      <trkpt lat="43.65271" lon="6.25477">
        <ele>980.1</ele>
        <time>2013-11-13T14:17:42Z</time>
      </trkpt>
      <trkpt lat="43.65259" lon="6.25493">
        <ele>980.9</ele>
        <time>2013-11-13T14:18:02Z</time>
      </trkpt>
      <trkpt lat="43.65252" lon="6.25498">
        <ele>980</ele>
        <time>2013-11-13T14:18:10Z</time>
      </trkpt>
      <trkpt lat="43.65246" lon="6.25507">
        <ele>980.3</ele>
        <time>2013-11-13T14:18:17Z</time>
      </trkpt>
      <trkpt lat="43.6524" lon="6.25516">
        <ele>981.1</ele>
        <time>2013-11-13T14:18:25Z</time>
      </trkpt>
      <trkpt lat="43.65235" lon="6.25526">
        <ele>981.6</ele>
        <time>2013-11-13T14:18:35Z</time>
      </trkpt>
      <trkpt lat="43.6523" lon="6.25536">
        <ele>981.5</ele>
        <time>2013-11-13T14:18:45Z</time>
      </trkpt>
      <trkpt lat="43.6523" lon="6.25537">
        <ele>981.7</ele>
        <time>2013-11-13T14:18:46Z</time>
      </trkpt>
      <trkpt lat="43.65218" lon="6.25553">
        <ele>983.2</ele>
        <time>2013-11-13T14:19:01Z</time>
      </trkpt>
      <trkpt lat="43.65213" lon="6.25562">
        <ele>983.5</ele>
        <time>2013-11-13T14:19:11Z</time>
      </trkpt>
      <trkpt lat="43.65206" lon="6.25568">
        <ele>983.5</ele>
        <time>2013-11-13T14:19:22Z</time>
      </trkpt>
      <trkpt lat="43.652" lon="6.25576">
        <ele>984</ele>
        <time>2013-11-13T14:19:33Z</time>
      </trkpt>
      <trkpt lat="43.65192" lon="6.25581">
        <ele>985.7</ele>
        <time>2013-11-13T14:19:45Z</time>
      </trkpt>
      <trkpt lat="43.65184" lon="6.25584">
        <ele>986</ele>
        <time>2013-11-13T14:19:54Z</time>
      </trkpt>
      <trkpt lat="43.65183" lon="6.25584">
        <ele>985.8</ele>
        <time>2013-11-13T14:19:55Z</time>
      </trkpt>
      <trkpt lat="43.65167" lon="6.2559">
        <ele>987.2</ele>
        <time>2013-11-13T14:20:14Z</time>
      </trkpt>
      <trkpt lat="43.65159" lon="6.25592">
        <ele>989</ele>
        <time>2013-11-13T14:20:27Z</time>
      </trkpt>
      <trkpt lat="43.65151" lon="6.25597">
        <ele>988.8</ele>
        <time>2013-11-13T14:20:35Z</time>
      </trkpt>
      <trkpt lat="43.65144" lon="6.25604">
        <ele>990.7</ele>
        <time>2013-11-13T14:20:44Z</time>
      </trkpt>
      <trkpt lat="43.65138" lon="6.25612">
        <ele>990.9</ele>
        <time>2013-11-13T14:21:00Z</time>
      </trkpt>
      <trkpt lat="43.65138" lon="6.25613">
        <ele>991.1</ele>
        <time>2013-11-13T14:21:01Z</time>
      </trkpt>
      <trkpt lat="43.65135" lon="6.25636">
        <ele>992.8</ele>
        <time>2013-11-13T14:21:26Z</time>
      </trkpt>
      <trkpt lat="43.6513" lon="6.25646">
        <ele>993.6</ele>
        <time>2013-11-13T14:21:39Z</time>
      </trkpt>
      <trkpt lat="43.65124" lon="6.25652">
        <ele>994.9</ele>
        <time>2013-11-13T14:21:47Z</time>
      </trkpt>
      <trkpt lat="43.65116" lon="6.25658">
        <ele>996</ele>
        <time>2013-11-13T14:21:55Z</time>
      </trkpt>
      <trkpt lat="43.6511" lon="6.25665">
        <ele>995.9</ele>
        <time>2013-11-13T14:22:05Z</time>
      </trkpt>
      <trkpt lat="43.65109" lon="6.25666">
        <ele>995.9</ele>
        <time>2013-11-13T14:22:06Z</time>
      </trkpt>
      <trkpt lat="43.65104" lon="6.25683">
        <ele>999.4</ele>
        <time>2013-11-13T14:22:35Z</time>
      </trkpt>
      <trkpt lat="43.65111" lon="6.2569">
        <ele>1000.5</ele>
        <time>2013-11-13T14:22:50Z</time>
      </trkpt>
      <trkpt lat="43.65115" lon="6.25701">
        <ele>1000.7</ele>
        <time>2013-11-13T14:23:03Z</time>
      </trkpt>
      <trkpt lat="43.65117" lon="6.25713">
        <ele>1000</ele>
        <time>2013-11-13T14:23:15Z</time>
      </trkpt>
      <trkpt lat="43.65116" lon="6.25714">
        <ele>999.5</ele>
        <time>2013-11-13T14:23:16Z</time>
      </trkpt>
      <trkpt lat="43.65119" lon="6.25734">
        <ele>1000</ele>
        <time>2013-11-13T14:23:30Z</time>
      </trkpt>
      <trkpt lat="43.6512" lon="6.25746">
        <ele>996.8</ele>
        <time>2013-11-13T14:23:38Z</time>
      </trkpt>
      <trkpt lat="43.65122" lon="6.25758">
        <ele>997.4</ele>
        <time>2013-11-13T14:23:51Z</time>
      </trkpt>
      <trkpt lat="43.65122" lon="6.2577">
        <ele>996.1</ele>
        <time>2013-11-13T14:24:01Z</time>
      </trkpt>
      <trkpt lat="43.65124" lon="6.25782">
        <ele>995.2</ele>
        <time>2013-11-13T14:24:11Z</time>
      </trkpt>
      <trkpt lat="43.65126" lon="6.25794">
        <ele>993.6</ele>
        <time>2013-11-13T14:24:24Z</time>
      </trkpt>
      <trkpt lat="43.65127" lon="6.25794">
        <ele>993.6</ele>
        <time>2013-11-13T14:24:25Z</time>
      </trkpt>
      <trkpt lat="43.65134" lon="6.25813">
        <ele>992.7</ele>
        <time>2013-11-13T14:24:49Z</time>
      </trkpt>
      <trkpt lat="43.65133" lon="6.25825">
        <ele>993.9</ele>
        <time>2013-11-13T14:25:01Z</time>
      </trkpt>
      <trkpt lat="43.65135" lon="6.25837">
        <ele>995.8</ele>
        <time>2013-11-13T14:25:14Z</time>
      </trkpt>
      <trkpt lat="43.65136" lon="6.25848">
        <ele>996</ele>
        <time>2013-11-13T14:25:25Z</time>
      </trkpt>
      <trkpt lat="43.65136" lon="6.2585">
        <ele>996.2</ele>
        <time>2013-11-13T14:25:26Z</time>
      </trkpt>
      <trkpt lat="43.65136" lon="6.25872">
        <ele>999</ele>
        <time>2013-11-13T14:25:50Z</time>
      </trkpt>
      <trkpt lat="43.65134" lon="6.25883">
        <ele>1000.6</ele>
        <time>2013-11-13T14:26:02Z</time>
      </trkpt>
      <trkpt lat="43.65134" lon="6.25895">
        <ele>1001.6</ele>
        <time>2013-11-13T14:26:11Z</time>
      </trkpt>
      <trkpt lat="43.65129" lon="6.25905">
        <ele>1003.2</ele>
        <time>2013-11-13T14:26:27Z</time>
      </trkpt>
      <trkpt lat="43.65129" lon="6.25906">
        <ele>1003.3</ele>
        <time>2013-11-13T14:26:28Z</time>
      </trkpt>
      <trkpt lat="43.65127" lon="6.25928">
        <ele>1002.9</ele>
        <time>2013-11-13T14:26:49Z</time>
      </trkpt>
      <trkpt lat="43.65127" lon="6.2594">
        <ele>1005.5</ele>
        <time>2013-11-13T14:27:01Z</time>
      </trkpt>
      <trkpt lat="43.65123" lon="6.25951">
        <ele>1005.2</ele>
        <time>2013-11-13T14:27:11Z</time>
      </trkpt>
      <trkpt lat="43.65118" lon="6.25961">
        <ele>1006.2</ele>
        <time>2013-11-13T14:27:20Z</time>
      </trkpt>
      <trkpt lat="43.65114" lon="6.25972">
        <ele>1005.2</ele>
        <time>2013-11-13T14:27:32Z</time>
      </trkpt>
      <trkpt lat="43.65113" lon="6.25973">
        <ele>1005.9</ele>
        <time>2013-11-13T14:27:33Z</time>
      </trkpt>
      <trkpt lat="43.65106" lon="6.25992">
        <ele>1002.8</ele>
        <time>2013-11-13T14:27:53Z</time>
      </trkpt>
      <trkpt lat="43.65103" lon="6.26003">
        <ele>1002.2</ele>
        <time>2013-11-13T14:28:02Z</time>
      </trkpt>
      <trkpt lat="43.65102" lon="6.26015">
        <ele>1002.8</ele>
        <time>2013-11-13T14:28:11Z</time>
      </trkpt>
      <trkpt lat="43.65102" lon="6.26027">
        <ele>1001.2</ele>
        <time>2013-11-13T14:28:20Z</time>
      </trkpt>
      <trkpt lat="43.65102" lon="6.26039">
        <ele>1001.6</ele>
        <time>2013-11-13T14:28:30Z</time>
      </trkpt>
      <trkpt lat="43.65102" lon="6.2605">
        <ele>1000.7</ele>
        <time>2013-11-13T14:28:40Z</time>
      </trkpt>
      <trkpt lat="43.65101" lon="6.26051">
        <ele>1001</ele>
        <time>2013-11-13T14:28:41Z</time>
      </trkpt>
      <trkpt lat="43.65098" lon="6.26071">
        <ele>1001.9</ele>
        <time>2013-11-13T14:28:57Z</time>
      </trkpt>
      <trkpt lat="43.65095" lon="6.26082">
        <ele>1002.8</ele>
        <time>2013-11-13T14:29:08Z</time>
      </trkpt>
      <trkpt lat="43.6509" lon="6.26092">
        <ele>1003.1</ele>
        <time>2013-11-13T14:29:20Z</time>
      </trkpt>
      <trkpt lat="43.65086" lon="6.26102">
        <ele>1005.5</ele>
        <time>2013-11-13T14:29:32Z</time>
      </trkpt>
      <trkpt lat="43.6508" lon="6.26112">
        <ele>1006.2</ele>
        <time>2013-11-13T14:29:54Z</time>
      </trkpt>
      <trkpt lat="43.6508" lon="6.26112">
        <ele>1006.5</ele>
        <time>2013-11-13T14:29:55Z</time>
      </trkpt>
      <trkpt lat="43.65071" lon="6.26132">
        <ele>1007.7</ele>
        <time>2013-11-13T14:31:53Z</time>
      </trkpt>
      <trkpt lat="43.65071" lon="6.26133">
        <ele>1007.9</ele>
        <time>2013-11-13T14:31:54Z</time>
      </trkpt>
      <trkpt lat="43.65062" lon="6.26151">
        <ele>1009.7</ele>
        <time>2013-11-13T14:32:17Z</time>
      </trkpt>
      <trkpt lat="43.65061" lon="6.26163">
        <ele>1012.2</ele>
        <time>2013-11-13T14:32:30Z</time>
      </trkpt>
      <trkpt lat="43.65061" lon="6.26175">
        <ele>1014.2</ele>
        <time>2013-11-13T14:32:39Z</time>
      </trkpt>
      <trkpt lat="43.65059" lon="6.26186">
        <ele>1015.6</ele>
        <time>2013-11-13T14:32:51Z</time>
      </trkpt>
      <trkpt lat="43.6506" lon="6.26198">
        <ele>1017.2</ele>
        <time>2013-11-13T14:33:08Z</time>
      </trkpt>
      <trkpt lat="43.65061" lon="6.26199">
        <ele>1017.5</ele>
        <time>2013-11-13T14:33:09Z</time>
      </trkpt>
      <trkpt lat="43.65056" lon="6.2622">
        <ele>1017</ele>
        <time>2013-11-13T14:33:27Z</time>
      </trkpt>
      <trkpt lat="43.65053" lon="6.26231">
        <ele>1016.4</ele>
        <time>2013-11-13T14:33:36Z</time>
      </trkpt>
      <trkpt lat="43.6505" lon="6.26242">
        <ele>1017.3</ele>
        <time>2013-11-13T14:33:47Z</time>
      </trkpt>
      <trkpt lat="43.65048" lon="6.26253">
        <ele>1017.4</ele>
        <time>2013-11-13T14:33:57Z</time>
      </trkpt>
      <trkpt lat="43.65046" lon="6.26265">
        <ele>1016.7</ele>
        <time>2013-11-13T14:34:07Z</time>
      </trkpt>
      <trkpt lat="43.65045" lon="6.26276">
        <ele>1017.8</ele>
        <time>2013-11-13T14:34:16Z</time>
      </trkpt>
      <trkpt lat="43.65045" lon="6.26277">
        <ele>1017.6</ele>
        <time>2013-11-13T14:34:17Z</time>
      </trkpt>
      <trkpt lat="43.65045" lon="6.263">
        <ele>1015.9</ele>
        <time>2013-11-13T14:34:38Z</time>
      </trkpt>
      <trkpt lat="43.65047" lon="6.26311">
        <ele>1016.2</ele>
        <time>2013-11-13T14:34:47Z</time>
      </trkpt>
      <trkpt lat="43.65047" lon="6.26323">
        <ele>1016.9</ele>
        <time>2013-11-13T14:34:56Z</time>
      </trkpt>
      <trkpt lat="43.65043" lon="6.26334">
        <ele>1016.2</ele>
        <time>2013-11-13T14:35:03Z</time>
      </trkpt>
      <trkpt lat="43.65038" lon="6.26343">
        <ele>1016.5</ele>
        <time>2013-11-13T14:35:11Z</time>
      </trkpt>
      <trkpt lat="43.65036" lon="6.26354">
        <ele>1017.9</ele>
        <time>2013-11-13T14:35:21Z</time>
      </trkpt>
      <trkpt lat="43.65036" lon="6.26355">
        <ele>1017.6</ele>
        <time>2013-11-13T14:35:22Z</time>
      </trkpt>
      <trkpt lat="43.65029" lon="6.26375">
        <ele>1016.3</ele>
        <time>2013-11-13T14:35:41Z</time>
      </trkpt>
      <trkpt lat="43.65025" lon="6.26386">
        <ele>1014.9</ele>
        <time>2013-11-13T14:35:54Z</time>
      </trkpt>
      <trkpt lat="43.65024" lon="6.26398">
        <ele>1009.8</ele>
        <time>2013-11-13T14:36:12Z</time>
      </trkpt>
      <trkpt lat="43.65023" lon="6.2641">
        <ele>1007</ele>
        <time>2013-11-13T14:36:25Z</time>
      </trkpt>
      <trkpt lat="43.65023" lon="6.26411">
        <ele>1008.4</ele>
        <time>2013-11-13T14:36:26Z</time>
      </trkpt>
      <trkpt lat="43.65022" lon="6.26433">
        <ele>1005</ele>
        <time>2013-11-13T14:36:43Z</time>
      </trkpt>
      <trkpt lat="43.6502" lon="6.26445">
        <ele>1006</ele>
        <time>2013-11-13T14:36:50Z</time>
      </trkpt>
      <trkpt lat="43.65018" lon="6.26456">
        <ele>1005.5</ele>
        <time>2013-11-13T14:36:58Z</time>
      </trkpt>
      <trkpt lat="43.65015" lon="6.26468">
        <ele>1005.8</ele>
        <time>2013-11-13T14:37:06Z</time>
      </trkpt>
      <trkpt lat="43.65012" lon="6.26478">
        <ele>1006.8</ele>
        <time>2013-11-13T14:37:16Z</time>
      </trkpt>
      <trkpt lat="43.6501" lon="6.2649">
        <ele>1006.8</ele>
        <time>2013-11-13T14:37:24Z</time>
      </trkpt>
      <trkpt lat="43.65007" lon="6.26501">
        <ele>1008.5</ele>
        <time>2013-11-13T14:37:35Z</time>
      </trkpt>
      <trkpt lat="43.65007" lon="6.26502">
        <ele>1008.6</ele>
        <time>2013-11-13T14:37:36Z</time>
      </trkpt>
      <trkpt lat="43.65005" lon="6.26525">
        <ele>1010.6</ele>
        <time>2013-11-13T14:38:04Z</time>
      </trkpt>
      <trkpt lat="43.65002" lon="6.26536">
        <ele>1013.3</ele>
        <time>2013-11-13T14:38:18Z</time>
      </trkpt>
      <trkpt lat="43.64996" lon="6.26545">
        <ele>1016.5</ele>
        <time>2013-11-13T14:38:32Z</time>
      </trkpt>
      <trkpt lat="43.64991" lon="6.26554">
        <ele>1017.3</ele>
        <time>2013-11-13T14:38:43Z</time>
      </trkpt>
      <trkpt lat="43.64991" lon="6.26555">
        <ele>1017.3</ele>
        <time>2013-11-13T14:38:44Z</time>
      </trkpt>
      <trkpt lat="43.64986" lon="6.26577">
        <ele>1014.9</ele>
        <time>2013-11-13T14:39:06Z</time>
      </trkpt>
      <trkpt lat="43.64981" lon="6.26586">
        <ele>1017.1</ele>
        <time>2013-11-13T14:39:20Z</time>
      </trkpt>
      <trkpt lat="43.64976" lon="6.26596">
        <ele>1019</ele>
        <time>2013-11-13T14:39:32Z</time>
      </trkpt>
      <trkpt lat="43.6497" lon="6.26604">
        <ele>1019.9</ele>
        <time>2013-11-13T14:39:41Z</time>
      </trkpt>
      <trkpt lat="43.64965" lon="6.26614">
        <ele>1020.3</ele>
        <time>2013-11-13T14:39:51Z</time>
      </trkpt>
      <trkpt lat="43.64965" lon="6.26615">
        <ele>1019.8</ele>
        <time>2013-11-13T14:39:52Z</time>
      </trkpt>
      <trkpt lat="43.64961" lon="6.26636">
        <ele>1017.6</ele>
        <time>2013-11-13T14:40:16Z</time>
      </trkpt>
      <trkpt lat="43.64959" lon="6.26646">
        <ele>1018.8</ele>
        <time>2013-11-13T14:40:23Z</time>
      </trkpt>
      <trkpt lat="43.64954" lon="6.26654">
        <ele>1020.2</ele>
        <time>2013-11-13T14:40:29Z</time>
      </trkpt>
      <trkpt lat="43.64948" lon="6.26662">
        <ele>1020.5</ele>
        <time>2013-11-13T14:40:38Z</time>
      </trkpt>
      <trkpt lat="43.64943" lon="6.26672">
        <ele>1021.2</ele>
        <time>2013-11-13T14:40:51Z</time>
      </trkpt>
      <trkpt lat="43.64943" lon="6.26673">
        <ele>1020.6</ele>
        <time>2013-11-13T14:40:52Z</time>
      </trkpt>
      <trkpt lat="43.64936" lon="6.26693">
        <ele>1024.2</ele>
        <time>2013-11-13T14:41:06Z</time>
      </trkpt>
      <trkpt lat="43.64935" lon="6.26705">
        <ele>1024.8</ele>
        <time>2013-11-13T14:41:17Z</time>
      </trkpt>
      <trkpt lat="43.64933" lon="6.26716">
        <ele>1023.9</ele>
        <time>2013-11-13T14:41:30Z</time>
      </trkpt>
      <trkpt lat="43.64932" lon="6.26728">
        <ele>1025.4</ele>
        <time>2013-11-13T14:41:44Z</time>
      </trkpt>
      <trkpt lat="43.64929" lon="6.26739">
        <ele>1026.2</ele>
        <time>2013-11-13T14:41:56Z</time>
      </trkpt>
      <trkpt lat="43.64929" lon="6.2674">
        <ele>1026.4</ele>
        <time>2013-11-13T14:41:57Z</time>
      </trkpt>
      <trkpt lat="43.6492" lon="6.26758">
        <ele>1029.7</ele>
        <time>2013-11-13T14:42:26Z</time>
      </trkpt>
      <trkpt lat="43.64915" lon="6.26768">
        <ele>1030.7</ele>
        <time>2013-11-13T14:42:45Z</time>
      </trkpt>
      <trkpt lat="43.64915" lon="6.26779">
        <ele>1033.5</ele>
        <time>2013-11-13T14:42:59Z</time>
      </trkpt>
      <trkpt lat="43.64915" lon="6.2678">
        <ele>1033.7</ele>
        <time>2013-11-13T14:43:00Z</time>
      </trkpt>
      <trkpt lat="43.64908" lon="6.26801">
        <ele>1034.2</ele>
        <time>2013-11-13T14:43:20Z</time>
      </trkpt>
      <trkpt lat="43.64904" lon="6.26811">
        <ele>1037.6</ele>
        <time>2013-11-13T14:43:31Z</time>
      </trkpt>
      <trkpt lat="43.64901" lon="6.26823">
        <ele>1037.1</ele>
        <time>2013-11-13T14:43:43Z</time>
      </trkpt>
      <trkpt lat="43.64895" lon="6.26833">
        <ele>1038.7</ele>
        <time>2013-11-13T14:44:01Z</time>
      </trkpt>
      <trkpt lat="43.64895" lon="6.26833">
        <ele>1038.6</ele>
        <time>2013-11-13T14:44:02Z</time>
      </trkpt>
      <trkpt lat="43.64887" lon="6.26853">
        <ele>1035.8</ele>
        <time>2013-11-13T14:44:27Z</time>
      </trkpt>
      <trkpt lat="43.64884" lon="6.26864">
        <ele>1038.5</ele>
        <time>2013-11-13T14:44:36Z</time>
      </trkpt>
      <trkpt lat="43.64878" lon="6.26872">
        <ele>1038.9</ele>
        <time>2013-11-13T14:44:52Z</time>
      </trkpt>
      <trkpt lat="43.64875" lon="6.26883">
        <ele>1039</ele>
        <time>2013-11-13T14:45:31Z</time>
      </trkpt>
      <trkpt lat="43.64875" lon="6.26884">
        <ele>1038.8</ele>
        <time>2013-11-13T14:45:32Z</time>
      </trkpt>
      <trkpt lat="43.6487" lon="6.26894">
        <ele>1037.7</ele>
        <time>2013-11-13T14:47:31Z</time>
      </trkpt>
      <trkpt lat="43.6487" lon="6.26917">
        <ele>1034.9</ele>
        <time>2013-11-13T14:47:59Z</time>
      </trkpt>
      <trkpt lat="43.64869" lon="6.26929">
        <ele>1031.4</ele>
        <time>2013-11-13T14:48:11Z</time>
      </trkpt>
      <trkpt lat="43.64865" lon="6.2694">
        <ele>1033</ele>
        <time>2013-11-13T14:48:23Z</time>
      </trkpt>
      <trkpt lat="43.64859" lon="6.26949">
        <ele>1030</ele>
        <time>2013-11-13T14:48:33Z</time>
      </trkpt>
      <trkpt lat="43.64858" lon="6.26949">
        <ele>1030.2</ele>
        <time>2013-11-13T14:48:34Z</time>
      </trkpt>
      <trkpt lat="43.64849" lon="6.26968">
        <ele>1028.8</ele>
        <time>2013-11-13T14:48:54Z</time>
      </trkpt>
      <trkpt lat="43.64847" lon="6.2698">
        <ele>1029.6</ele>
        <time>2013-11-13T14:49:01Z</time>
      </trkpt>
      <trkpt lat="43.64843" lon="6.2699">
        <ele>1030.6</ele>
        <time>2013-11-13T14:49:11Z</time>
      </trkpt>
      <trkpt lat="43.64838" lon="6.27001">
        <ele>1029.1</ele>
        <time>2013-11-13T14:49:31Z</time>
      </trkpt>
      <trkpt lat="43.64835" lon="6.27011">
        <ele>1027.6</ele>
        <time>2013-11-13T14:49:47Z</time>
      </trkpt>
      <trkpt lat="43.64834" lon="6.27011">
        <ele>1027.9</ele>
        <time>2013-11-13T14:49:48Z</time>
      </trkpt>
      <trkpt lat="43.64821" lon="6.27024">
        <ele>1028.3</ele>
        <time>2013-11-13T14:50:05Z</time>
      </trkpt>
      <trkpt lat="43.64816" lon="6.27034">
        <ele>1028.1</ele>
        <time>2013-11-13T14:50:16Z</time>
      </trkpt>
      <trkpt lat="43.64812" lon="6.27044">
        <ele>1029.1</ele>
        <time>2013-11-13T14:50:26Z</time>
      </trkpt>
      <trkpt lat="43.64807" lon="6.27054">
        <ele>1030</ele>
        <time>2013-11-13T14:50:34Z</time>
      </trkpt>
      <trkpt lat="43.648" lon="6.2706">
        <ele>1030.4</ele>
        <time>2013-11-13T14:50:43Z</time>
      </trkpt>
      <trkpt lat="43.64792" lon="6.27065">
        <ele>1030.1</ele>
        <time>2013-11-13T14:50:50Z</time>
      </trkpt>
      <trkpt lat="43.64791" lon="6.27066">
        <ele>1030.3</ele>
        <time>2013-11-13T14:50:51Z</time>
      </trkpt>
      <trkpt lat="43.64776" lon="6.27073">
        <ele>1030.5</ele>
        <time>2013-11-13T14:51:09Z</time>
      </trkpt>
      <trkpt lat="43.64767" lon="6.27075">
        <ele>1030.2</ele>
        <time>2013-11-13T14:51:17Z</time>
      </trkpt>
      <trkpt lat="43.6476" lon="6.27075">
        <ele>1030.7</ele>
        <time>2013-11-13T14:51:22Z</time>
      </trkpt>
      <trkpt lat="43.64751" lon="6.27074">
        <ele>1030.3</ele>
        <time>2013-11-13T14:51:29Z</time>
      </trkpt>
      <trkpt lat="43.64744" lon="6.27079">
        <ele>1032.2</ele>
        <time>2013-11-13T14:51:44Z</time>
      </trkpt>
      <trkpt lat="43.64735" lon="6.27082">
        <ele>1034.3</ele>
        <time>2013-11-13T14:51:57Z</time>
      </trkpt>
      <trkpt lat="43.64735" lon="6.27082">
        <ele>1032.8</ele>
        <time>2013-11-13T14:51:58Z</time>
      </trkpt>
      <trkpt lat="43.64721" lon="6.27095">
        <ele>1029.7</ele>
        <time>2013-11-13T14:52:21Z</time>
      </trkpt>
      <trkpt lat="43.64716" lon="6.27103">
        <ele>1029.4</ele>
        <time>2013-11-13T14:52:33Z</time>
      </trkpt>
      <trkpt lat="43.6471" lon="6.27113">
        <ele>1028.3</ele>
        <time>2013-11-13T14:52:42Z</time>
      </trkpt>
      <trkpt lat="43.64702" lon="6.27118">
        <ele>1027.3</ele>
        <time>2013-11-13T14:52:51Z</time>
      </trkpt>
      <trkpt lat="43.64695" lon="6.27125">
        <ele>1023.5</ele>
        <time>2013-11-13T14:53:01Z</time>
      </trkpt>
      <trkpt lat="43.64694" lon="6.27127">
        <ele>1023.8</ele>
        <time>2013-11-13T14:53:02Z</time>
      </trkpt>
      <trkpt lat="43.64685" lon="6.27143">
        <ele>1023.9</ele>
        <time>2013-11-13T14:53:19Z</time>
      </trkpt>
      <trkpt lat="43.64679" lon="6.27151">
        <ele>1024.4</ele>
        <time>2013-11-13T14:53:26Z</time>
      </trkpt>
      <trkpt lat="43.64672" lon="6.27159">
        <ele>1025.9</ele>
        <time>2013-11-13T14:53:34Z</time>
      </trkpt>
      <trkpt lat="43.64665" lon="6.27164">
        <ele>1026.7</ele>
        <time>2013-11-13T14:53:46Z</time>
      </trkpt>
      <trkpt lat="43.64659" lon="6.27173">
        <ele>1029</ele>
        <time>2013-11-13T14:53:59Z</time>
      </trkpt>
      <trkpt lat="43.64654" lon="6.27182">
        <ele>1030.8</ele>
        <time>2013-11-13T14:54:10Z</time>
      </trkpt>
      <trkpt lat="43.64653" lon="6.27183">
        <ele>1031.2</ele>
        <time>2013-11-13T14:54:11Z</time>
      </trkpt>
      <trkpt lat="43.64642" lon="6.27197">
        <ele>1032.9</ele>
        <time>2013-11-13T14:54:31Z</time>
      </trkpt>
      <trkpt lat="43.64635" lon="6.27204">
        <ele>1032.3</ele>
        <time>2013-11-13T14:54:38Z</time>
      </trkpt>
      <trkpt lat="43.64628" lon="6.27208">
        <ele>1034.4</ele>
        <time>2013-11-13T14:54:46Z</time>
      </trkpt>
      <trkpt lat="43.64619" lon="6.27209">
        <ele>1036.4</ele>
        <time>2013-11-13T14:54:58Z</time>
      </trkpt>
      <trkpt lat="43.64611" lon="6.27211">
        <ele>1037.4</ele>
        <time>2013-11-13T14:55:11Z</time>
      </trkpt>
      <trkpt lat="43.64604" lon="6.27219">
        <ele>1038.4</ele>
        <time>2013-11-13T14:55:32Z</time>
      </trkpt>
      <trkpt lat="43.64604" lon="6.27219">
        <ele>1039</ele>
        <time>2013-11-13T14:55:33Z</time>
      </trkpt>
      <trkpt lat="43.64587" lon="6.27223">
        <ele>1039.4</ele>
        <time>2013-11-13T14:55:55Z</time>
      </trkpt>
      <trkpt lat="43.64579" lon="6.2722">
        <ele>1039.5</ele>
        <time>2013-11-13T14:56:10Z</time>
      </trkpt>
      <trkpt lat="43.6457" lon="6.27221">
        <ele>1038.3</ele>
        <time>2013-11-13T14:58:19Z</time>
      </trkpt>
      <trkpt lat="43.64569" lon="6.2722">
        <ele>1038.6</ele>
        <time>2013-11-13T14:58:20Z</time>
      </trkpt>
      <trkpt lat="43.64553" lon="6.27225">
        <ele>1044.6</ele>
        <time>2013-11-13T14:59:30Z</time>
      </trkpt>
      <trkpt lat="43.64551" lon="6.27225">
        <ele>1044.2</ele>
        <time>2013-11-13T14:59:31Z</time>
      </trkpt>
      <trkpt lat="43.64536" lon="6.27232">
        <ele>1051.4</ele>
        <time>2013-11-13T15:00:04Z</time>
      </trkpt>
      <trkpt lat="43.64528" lon="6.27234">
        <ele>1055</ele>
        <time>2013-11-13T15:00:27Z</time>
      </trkpt>
      <trkpt lat="43.64519" lon="6.27235">
        <ele>1057.8</ele>
        <time>2013-11-13T15:00:49Z</time>
      </trkpt>
      <trkpt lat="43.64519" lon="6.27235">
        <ele>1058.5</ele>
        <time>2013-11-13T15:00:50Z</time>
      </trkpt>
      <trkpt lat="43.64505" lon="6.27242">
        <ele>1064.2</ele>
        <time>2013-11-13T15:01:24Z</time>
      </trkpt>
      <trkpt lat="43.64497" lon="6.27247">
        <ele>1067.1</ele>
        <time>2013-11-13T15:01:40Z</time>
      </trkpt>
      <trkpt lat="43.64488" lon="6.27248">
        <ele>1070.3</ele>
        <time>2013-11-13T15:01:56Z</time>
      </trkpt>
      <trkpt lat="43.64488" lon="6.27248">
        <ele>1070.2</ele>
        <time>2013-11-13T15:01:57Z</time>
      </trkpt>
      <trkpt lat="43.64474" lon="6.27258">
        <ele>1073.4</ele>
        <time>2013-11-13T15:02:24Z</time>
      </trkpt>
      <trkpt lat="43.64465" lon="6.27257">
        <ele>1071.6</ele>
        <time>2013-11-13T15:03:22Z</time>
      </trkpt>
      <trkpt lat="43.64465" lon="6.27257">
        <ele>1071</ele>
        <time>2013-11-13T15:03:23Z</time>
      </trkpt>
      <trkpt lat="43.64461" lon="6.27268">
        <ele>1074.9</ele>
        <time>2013-11-13T15:11:02Z</time>
      </trkpt>
      <trkpt lat="43.6446" lon="6.2729">
        <ele>1071.2</ele>
        <time>2013-11-13T15:11:32Z</time>
      </trkpt>
      <trkpt lat="43.64456" lon="6.27302">
        <ele>1069.4</ele>
        <time>2013-11-13T15:11:43Z</time>
      </trkpt>
      <trkpt lat="43.64453" lon="6.27313">
        <ele>1066.3</ele>
        <time>2013-11-13T15:11:54Z</time>
      </trkpt>
      <trkpt lat="43.64447" lon="6.27321">
        <ele>1066.7</ele>
        <time>2013-11-13T15:12:08Z</time>
      </trkpt>
      <trkpt lat="43.64446" lon="6.27322">
        <ele>1066.4</ele>
        <time>2013-11-13T15:12:09Z</time>
      </trkpt>
      <trkpt lat="43.64436" lon="6.27339">
        <ele>1062.2</ele>
        <time>2013-11-13T15:12:34Z</time>
      </trkpt>
      <trkpt lat="43.64428" lon="6.27345">
        <ele>1060.7</ele>
        <time>2013-11-13T15:12:43Z</time>
      </trkpt>
      <trkpt lat="43.64424" lon="6.27355">
        <ele>1060.5</ele>
        <time>2013-11-13T15:12:55Z</time>
      </trkpt>
      <trkpt lat="43.64416" lon="6.27361">
        <ele>1058.9</ele>
        <time>2013-11-13T15:13:05Z</time>
      </trkpt>
      <trkpt lat="43.64411" lon="6.27371">
        <ele>1056.6</ele>
        <time>2013-11-13T15:13:19Z</time>
      </trkpt>
      <trkpt lat="43.64411" lon="6.27373">
        <ele>1056.7</ele>
        <time>2013-11-13T15:13:20Z</time>
      </trkpt>
      <trkpt lat="43.64401" lon="6.27391">
        <ele>1053.8</ele>
        <time>2013-11-13T15:13:37Z</time>
      </trkpt>
      <trkpt lat="43.64394" lon="6.27398">
        <ele>1052.4</ele>
        <time>2013-11-13T15:13:46Z</time>
      </trkpt>
      <trkpt lat="43.64389" lon="6.27407">
        <ele>1052.6</ele>
        <time>2013-11-13T15:13:56Z</time>
      </trkpt>
      <trkpt lat="43.64381" lon="6.2741">
        <ele>1053.2</ele>
        <time>2013-11-13T15:14:05Z</time>
      </trkpt>
      <trkpt lat="43.64373" lon="6.27413">
        <ele>1052.3</ele>
        <time>2013-11-13T15:14:15Z</time>
      </trkpt>
      <trkpt lat="43.64366" lon="6.2742">
        <ele>1051.5</ele>
        <time>2013-11-13T15:14:27Z</time>
      </trkpt>
      <trkpt lat="43.64366" lon="6.27421">
        <ele>1050.7</ele>
        <time>2013-11-13T15:14:28Z</time>
      </trkpt>
      <trkpt lat="43.64355" lon="6.27438">
        <ele>1046.5</ele>
        <time>2013-11-13T15:14:48Z</time>
      </trkpt>
      <trkpt lat="43.6435" lon="6.27448">
        <ele>1044.8</ele>
        <time>2013-11-13T15:15:00Z</time>
      </trkpt>
      <trkpt lat="43.64344" lon="6.27455">
        <ele>1044.5</ele>
        <time>2013-11-13T15:15:09Z</time>
      </trkpt>
      <trkpt lat="43.64339" lon="6.27464">
        <ele>1043.4</ele>
        <time>2013-11-13T15:15:19Z</time>
      </trkpt>
      <trkpt lat="43.64334" lon="6.27474">
        <ele>1043.5</ele>
        <time>2013-11-13T15:15:27Z</time>
      </trkpt>
      <trkpt lat="43.64326" lon="6.2748">
        <ele>1043.9</ele>
        <time>2013-11-13T15:15:38Z</time>
      </trkpt>
      <trkpt lat="43.64326" lon="6.27482">
        <ele>1044</ele>
        <time>2013-11-13T15:15:39Z</time>
      </trkpt>
      <trkpt lat="43.64315" lon="6.27498">
        <ele>1043.1</ele>
        <time>2013-11-13T15:15:59Z</time>
      </trkpt>
      <trkpt lat="43.64308" lon="6.27505">
        <ele>1042.8</ele>
        <time>2013-11-13T15:16:09Z</time>
      </trkpt>
      <trkpt lat="43.643" lon="6.27508">
        <ele>1043</ele>
        <time>2013-11-13T15:16:15Z</time>
      </trkpt>
      <trkpt lat="43.64293" lon="6.27516">
        <ele>1041.5</ele>
        <time>2013-11-13T15:16:24Z</time>
      </trkpt>
      <trkpt lat="43.64291" lon="6.27526">
        <ele>1041.8</ele>
        <time>2013-11-13T15:16:29Z</time>
      </trkpt>
      <trkpt lat="43.64289" lon="6.27538">
        <ele>1039.9</ele>
        <time>2013-11-13T15:16:36Z</time>
      </trkpt>
      <trkpt lat="43.64283" lon="6.27546">
        <ele>1040.1</ele>
        <time>2013-11-13T15:16:45Z</time>
      </trkpt>
      <trkpt lat="43.64282" lon="6.27547">
        <ele>1039.9</ele>
        <time>2013-11-13T15:16:46Z</time>
      </trkpt>
      <trkpt lat="43.64272" lon="6.27563">
        <ele>1037.8</ele>
        <time>2013-11-13T15:17:04Z</time>
      </trkpt>
      <trkpt lat="43.6427" lon="6.27574">
        <ele>1036.5</ele>
        <time>2013-11-13T15:17:16Z</time>
      </trkpt>
      <trkpt lat="43.64268" lon="6.27585">
        <ele>1037</ele>
        <time>2013-11-13T15:17:25Z</time>
      </trkpt>
      <trkpt lat="43.64266" lon="6.27596">
        <ele>1033.1</ele>
        <time>2013-11-13T15:17:35Z</time>
      </trkpt>
      <trkpt lat="43.64262" lon="6.27606">
        <ele>1033.2</ele>
        <time>2013-11-13T15:17:44Z</time>
      </trkpt>
      <trkpt lat="43.64255" lon="6.27614">
        <ele>1031.7</ele>
        <time>2013-11-13T15:17:55Z</time>
      </trkpt>
      <trkpt lat="43.64255" lon="6.27615">
        <ele>1031.7</ele>
        <time>2013-11-13T15:17:56Z</time>
      </trkpt>
      <trkpt lat="43.64245" lon="6.27632">
        <ele>1030</ele>
        <time>2013-11-13T15:18:20Z</time>
      </trkpt>
      <trkpt lat="43.6424" lon="6.27641">
        <ele>1029</ele>
        <time>2013-11-13T15:18:27Z</time>
      </trkpt>
      <trkpt lat="43.64238" lon="6.27652">
        <ele>1027.3</ele>
        <time>2013-11-13T15:18:36Z</time>
      </trkpt>
      <trkpt lat="43.64233" lon="6.27662">
        <ele>1028.5</ele>
        <time>2013-11-13T15:18:47Z</time>
      </trkpt>
      <trkpt lat="43.64226" lon="6.2767">
        <ele>1029.1</ele>
        <time>2013-11-13T15:18:55Z</time>
      </trkpt>
      <trkpt lat="43.6422" lon="6.27677">
        <ele>1028.2</ele>
        <time>2013-11-13T15:19:04Z</time>
      </trkpt>
      <trkpt lat="43.64218" lon="6.27679">
        <ele>1028.3</ele>
        <time>2013-11-13T15:19:05Z</time>
      </trkpt>
      <trkpt lat="43.64207" lon="6.27693">
        <ele>1028.5</ele>
        <time>2013-11-13T15:19:19Z</time>
      </trkpt>
      <trkpt lat="43.64201" lon="6.27701">
        <ele>1030.2</ele>
        <time>2013-11-13T15:19:27Z</time>
      </trkpt>
      <trkpt lat="43.64195" lon="6.27711">
        <ele>1029.4</ele>
        <time>2013-11-13T15:19:36Z</time>
      </trkpt>
      <trkpt lat="43.64191" lon="6.2772">
        <ele>1031</ele>
        <time>2013-11-13T15:19:44Z</time>
      </trkpt>
      <trkpt lat="43.64187" lon="6.27732">
        <ele>1031.5</ele>
        <time>2013-11-13T15:19:55Z</time>
      </trkpt>
      <trkpt lat="43.64179" lon="6.27736">
        <ele>1030.9</ele>
        <time>2013-11-13T15:20:28Z</time>
      </trkpt>
      <trkpt lat="43.64178" lon="6.27737">
        <ele>1031.4</ele>
        <time>2013-11-13T15:20:29Z</time>
      </trkpt>
      <trkpt lat="43.64179" lon="6.27745">
        <ele>1026.6</ele>
        <time>2013-11-13T15:21:39Z</time>
      </trkpt>
      <trkpt lat="43.64179" lon="6.27744">
        <ele>1026.9</ele>
        <time>2013-11-13T15:21:40Z</time>
      </trkpt>
      <trkpt lat="43.64195" lon="6.27742">
        <ele>1022</ele>
        <time>2013-11-13T15:22:05Z</time>
      </trkpt>
      <trkpt lat="43.64203" lon="6.2774">
        <ele>1019.5</ele>
        <time>2013-11-13T15:22:18Z</time>
      </trkpt>
      <trkpt lat="43.64212" lon="6.27738">
        <ele>1015.9</ele>
        <time>2013-11-13T15:22:33Z</time>
      </trkpt>
      <trkpt lat="43.6422" lon="6.27737">
        <ele>1012.6</ele>
        <time>2013-11-13T15:22:47Z</time>
      </trkpt>
      <trkpt lat="43.64221" lon="6.27737">
        <ele>1012</ele>
        <time>2013-11-13T15:22:48Z</time>
      </trkpt>
      <trkpt lat="43.64237" lon="6.27733">
        <ele>1009.2</ele>
        <time>2013-11-13T15:23:10Z</time>
      </trkpt>
      <trkpt lat="43.64245" lon="6.27733">
        <ele>1008.4</ele>
        <time>2013-11-13T15:23:21Z</time>
      </trkpt>
      <trkpt lat="43.64253" lon="6.27737">
        <ele>1007.2</ele>
        <time>2013-11-13T15:23:33Z</time>
      </trkpt>
      <trkpt lat="43.64262" lon="6.27738">
        <ele>1003.4</ele>
        <time>2013-11-13T15:23:45Z</time>
      </trkpt>
      <trkpt lat="43.6427" lon="6.27735">
        <ele>1003</ele>
        <time>2013-11-13T15:23:56Z</time>
      </trkpt>
      <trkpt lat="43.64271" lon="6.27734">
        <ele>1002.9</ele>
        <time>2013-11-13T15:23:57Z</time>
      </trkpt>
      <trkpt lat="43.64284" lon="6.27724">
        <ele>1002</ele>
        <time>2013-11-13T15:24:17Z</time>
      </trkpt>
      <trkpt lat="43.64291" lon="6.27717">
        <ele>1000.5</ele>
        <time>2013-11-13T15:24:24Z</time>
      </trkpt>
      <trkpt lat="43.64298" lon="6.2771">
        <ele>998.6</ele>
        <time>2013-11-13T15:24:32Z</time>
      </trkpt>
      <trkpt lat="43.64306" lon="6.27705">
        <ele>996.4</ele>
        <time>2013-11-13T15:24:44Z</time>
      </trkpt>
      <trkpt lat="43.64315" lon="6.27704">
        <ele>995.2</ele>
        <time>2013-11-13T15:25:01Z</time>
      </trkpt>
      <trkpt lat="43.64315" lon="6.27704">
        <ele>994.5</ele>
        <time>2013-11-13T15:25:02Z</time>
      </trkpt>
      <trkpt lat="43.64331" lon="6.27696">
        <ele>993.2</ele>
        <time>2013-11-13T15:25:20Z</time>
      </trkpt>
      <trkpt lat="43.64337" lon="6.27689">
        <ele>990.7</ele>
        <time>2013-11-13T15:25:32Z</time>
      </trkpt>
      <trkpt lat="43.64345" lon="6.27687">
        <ele>988.1</ele>
        <time>2013-11-13T15:25:39Z</time>
      </trkpt>
      <trkpt lat="43.64353" lon="6.27683">
        <ele>988.6</ele>
        <time>2013-11-13T15:25:48Z</time>
      </trkpt>
      <trkpt lat="43.64359" lon="6.27675">
        <ele>986.1</ele>
        <time>2013-11-13T15:26:02Z</time>
      </trkpt>
      <trkpt lat="43.6436" lon="6.27675">
        <ele>986.2</ele>
        <time>2013-11-13T15:26:03Z</time>
      </trkpt>
      <trkpt lat="43.64373" lon="6.27662">
        <ele>982.3</ele>
        <time>2013-11-13T15:26:25Z</time>
      </trkpt>
      <trkpt lat="43.6438" lon="6.27655">
        <ele>984</ele>
        <time>2013-11-13T15:26:36Z</time>
      </trkpt>
      <trkpt lat="43.64386" lon="6.27646">
        <ele>983.6</ele>
        <time>2013-11-13T15:26:43Z</time>
      </trkpt>
      <trkpt lat="43.64391" lon="6.27636">
        <ele>981.8</ele>
        <time>2013-11-13T15:26:53Z</time>
      </trkpt>
      <trkpt lat="43.64397" lon="6.27628">
        <ele>981.3</ele>
        <time>2013-11-13T15:27:01Z</time>
      </trkpt>
      <trkpt lat="43.64403" lon="6.27621">
        <ele>981.3</ele>
        <time>2013-11-13T15:27:08Z</time>
      </trkpt>
      <trkpt lat="43.64404" lon="6.2762">
        <ele>980.6</ele>
        <time>2013-11-13T15:27:09Z</time>
      </trkpt>
      <trkpt lat="43.64418" lon="6.27611">
        <ele>979.9</ele>
        <time>2013-11-13T15:27:36Z</time>
      </trkpt>
      <trkpt lat="43.64426" lon="6.27607">
        <ele>978.9</ele>
        <time>2013-11-13T15:27:47Z</time>
      </trkpt>
      <trkpt lat="43.64435" lon="6.27607">
        <ele>976.9</ele>
        <time>2013-11-13T15:28:01Z</time>
      </trkpt>
      <trkpt lat="43.64444" lon="6.27608">
        <ele>974.8</ele>
        <time>2013-11-13T15:28:15Z</time>
      </trkpt>
      <trkpt lat="43.64444" lon="6.27608">
        <ele>975</ele>
        <time>2013-11-13T15:28:16Z</time>
      </trkpt>
      <trkpt lat="43.64461" lon="6.27614">
        <ele>974</ele>
        <time>2013-11-13T15:28:43Z</time>
      </trkpt>
      <trkpt lat="43.64467" lon="6.27618">
        <ele>973.5</ele>
        <time>2013-11-13T15:28:48Z</time>
      </trkpt>
      <trkpt lat="43.64473" lon="6.27625">
        <ele>974.2</ele>
        <time>2013-11-13T15:28:55Z</time>
      </trkpt>
      <trkpt lat="43.64478" lon="6.27634">
        <ele>974.4</ele>
        <time>2013-11-13T15:29:02Z</time>
      </trkpt>
      <trkpt lat="43.64484" lon="6.27643">
        <ele>975.4</ele>
        <time>2013-11-13T15:29:09Z</time>
      </trkpt>
      <trkpt lat="43.6449" lon="6.27651">
        <ele>975.8</ele>
        <time>2013-11-13T15:29:19Z</time>
      </trkpt>
      <trkpt lat="43.64491" lon="6.27652">
        <ele>975.8</ele>
        <time>2013-11-13T15:29:20Z</time>
      </trkpt>
      <trkpt lat="43.64503" lon="6.27667">
        <ele>976.3</ele>
        <time>2013-11-13T15:29:40Z</time>
      </trkpt>
      <trkpt lat="43.6451" lon="6.27673">
        <ele>975.4</ele>
        <time>2013-11-13T15:29:51Z</time>
      </trkpt>
      <trkpt lat="43.64518" lon="6.2768">
        <ele>977.4</ele>
        <time>2013-11-13T15:30:04Z</time>
      </trkpt>
      <trkpt lat="43.64522" lon="6.27691">
        <ele>976.1</ele>
        <time>2013-11-13T15:30:18Z</time>
      </trkpt>
      <trkpt lat="43.64525" lon="6.27702">
        <ele>975</ele>
        <time>2013-11-13T15:30:31Z</time>
      </trkpt>
      <trkpt lat="43.64525" lon="6.27703">
        <ele>974.5</ele>
        <time>2013-11-13T15:30:32Z</time>
      </trkpt>
      <trkpt lat="43.64525" lon="6.27725">
        <ele>973.7</ele>
        <time>2013-11-13T15:30:56Z</time>
      </trkpt>
      <trkpt lat="43.64524" lon="6.27737">
        <ele>972.1</ele>
        <time>2013-11-13T15:31:12Z</time>
      </trkpt>
      <trkpt lat="43.64528" lon="6.27749">
        <ele>971.7</ele>
        <time>2013-11-13T15:31:41Z</time>
      </trkpt>
      <trkpt lat="43.64528" lon="6.2775">
        <ele>971.7</ele>
        <time>2013-11-13T15:31:42Z</time>
      </trkpt>
      <trkpt lat="43.64537" lon="6.27751">
        <ele>969.2</ele>
        <time>2013-11-13T15:33:39Z</time>
      </trkpt>
      <trkpt lat="43.64553" lon="6.27751">
        <ele>965.4</ele>
        <time>2013-11-13T15:34:00Z</time>
      </trkpt>
      <trkpt lat="43.64561" lon="6.2775">
        <ele>963.4</ele>
        <time>2013-11-13T15:34:12Z</time>
      </trkpt>
      <trkpt lat="43.6457" lon="6.27748">
        <ele>960.7</ele>
        <time>2013-11-13T15:34:23Z</time>
      </trkpt>
      <trkpt lat="43.64578" lon="6.27744">
        <ele>962.1</ele>
        <time>2013-11-13T15:34:35Z</time>
      </trkpt>
      <trkpt lat="43.64586" lon="6.2774">
        <ele>959.1</ele>
        <time>2013-11-13T15:34:45Z</time>
      </trkpt>
      <trkpt lat="43.64587" lon="6.2774">
        <ele>959.3</ele>
        <time>2013-11-13T15:34:46Z</time>
      </trkpt>
      <trkpt lat="43.64601" lon="6.27732">
        <ele>956.4</ele>
        <time>2013-11-13T15:35:07Z</time>
      </trkpt>
      <trkpt lat="43.64609" lon="6.27728">
        <ele>955.2</ele>
        <time>2013-11-13T15:35:17Z</time>
      </trkpt>
      <trkpt lat="43.64617" lon="6.27722">
        <ele>953</ele>
        <time>2013-11-13T15:35:28Z</time>
      </trkpt>
      <trkpt lat="43.64624" lon="6.27716">
        <ele>951.7</ele>
        <time>2013-11-13T15:35:39Z</time>
      </trkpt>
      <trkpt lat="43.64632" lon="6.2771">
        <ele>950</ele>
        <time>2013-11-13T15:35:48Z</time>
      </trkpt>
      <trkpt lat="43.64632" lon="6.2771">
        <ele>949.8</ele>
        <time>2013-11-13T15:35:49Z</time>
      </trkpt>
      <trkpt lat="43.64647" lon="6.277">
        <ele>946.8</ele>
        <time>2013-11-13T15:36:07Z</time>
      </trkpt>
      <trkpt lat="43.64654" lon="6.27694">
        <ele>945.4</ele>
        <time>2013-11-13T15:36:17Z</time>
      </trkpt>
      <trkpt lat="43.64663" lon="6.2769">
        <ele>944</ele>
        <time>2013-11-13T15:36:26Z</time>
      </trkpt>
      <trkpt lat="43.64671" lon="6.27686">
        <ele>943.7</ele>
        <time>2013-11-13T15:36:36Z</time>
      </trkpt>
      <trkpt lat="43.64678" lon="6.27681">
        <ele>941.5</ele>
        <time>2013-11-13T15:36:46Z</time>
      </trkpt>
      <trkpt lat="43.64684" lon="6.27673">
        <ele>941</ele>
        <time>2013-11-13T15:36:54Z</time>
      </trkpt>
      <trkpt lat="43.64685" lon="6.27673">
        <ele>941.2</ele>
        <time>2013-11-13T15:36:55Z</time>
      </trkpt>
      <trkpt lat="43.647" lon="6.27664">
        <ele>938.4</ele>
        <time>2013-11-13T15:37:15Z</time>
      </trkpt>
      <trkpt lat="43.64708" lon="6.27661">
        <ele>937.1</ele>
        <time>2013-11-13T15:37:27Z</time>
      </trkpt>
      <trkpt lat="43.64716" lon="6.27656">
        <ele>936.3</ele>
        <time>2013-11-13T15:37:37Z</time>
      </trkpt>
      <trkpt lat="43.64724" lon="6.27654">
        <ele>934.6</ele>
        <time>2013-11-13T15:37:48Z</time>
      </trkpt>
      <trkpt lat="43.64732" lon="6.27647">
        <ele>933</ele>
        <time>2013-11-13T15:37:58Z</time>
      </trkpt>
      <trkpt lat="43.64733" lon="6.27647">
        <ele>932.6</ele>
        <time>2013-11-13T15:37:59Z</time>
      </trkpt>
      <trkpt lat="43.64746" lon="6.27633">
        <ele>929.1</ele>
        <time>2013-11-13T15:38:24Z</time>
      </trkpt>
      <trkpt lat="43.64751" lon="6.27623">
        <ele>928.3</ele>
        <time>2013-11-13T15:38:33Z</time>
      </trkpt>
      <trkpt lat="43.64755" lon="6.27614">
        <ele>927.6</ele>
        <time>2013-11-13T15:38:38Z</time>
      </trkpt>
      <trkpt lat="43.64759" lon="6.27604">
        <ele>927.6</ele>
        <time>2013-11-13T15:38:45Z</time>
      </trkpt>
      <trkpt lat="43.64765" lon="6.27596">
        <ele>927.3</ele>
        <time>2013-11-13T15:38:53Z</time>
      </trkpt>
      <trkpt lat="43.6477" lon="6.27586">
        <ele>925.6</ele>
        <time>2013-11-13T15:39:04Z</time>
      </trkpt>
      <trkpt lat="43.6477" lon="6.27585">
        <ele>925.3</ele>
        <time>2013-11-13T15:39:05Z</time>
      </trkpt>
      <trkpt lat="43.64778" lon="6.27565">
        <ele>922</ele>
        <time>2013-11-13T15:39:23Z</time>
      </trkpt>
      <trkpt lat="43.64778" lon="6.27553">
        <ele>919.8</ele>
        <time>2013-11-13T15:39:35Z</time>
      </trkpt>
      <trkpt lat="43.64775" lon="6.27541">
        <ele>918.9</ele>
        <time>2013-11-13T15:39:49Z</time>
      </trkpt>
      <trkpt lat="43.64772" lon="6.27531">
        <ele>916.2</ele>
        <time>2013-11-13T15:40:01Z</time>
      </trkpt>
      <trkpt lat="43.64769" lon="6.27519">
        <ele>915.6</ele>
        <time>2013-11-13T15:40:10Z</time>
      </trkpt>
      <trkpt lat="43.64769" lon="6.27519">
        <ele>914.9</ele>
        <time>2013-11-13T15:40:11Z</time>
      </trkpt>
      <trkpt lat="43.64759" lon="6.275">
        <ele>911.8</ele>
        <time>2013-11-13T15:40:31Z</time>
      </trkpt>
      <trkpt lat="43.64755" lon="6.2749">
        <ele>911.2</ele>
        <time>2013-11-13T15:40:43Z</time>
      </trkpt>
      <trkpt lat="43.64753" lon="6.27478">
        <ele>908.2</ele>
        <time>2013-11-13T15:40:57Z</time>
      </trkpt>
      <trkpt lat="43.64758" lon="6.27469">
        <ele>906.2</ele>
        <time>2013-11-13T15:41:15Z</time>
      </trkpt>
      <trkpt lat="43.64759" lon="6.27468">
        <ele>906.4</ele>
        <time>2013-11-13T15:41:16Z</time>
      </trkpt>
      <trkpt lat="43.64771" lon="6.27456">
        <ele>903.5</ele>
        <time>2013-11-13T15:41:35Z</time>
      </trkpt>
      <trkpt lat="43.64779" lon="6.27458">
        <ele>903.9</ele>
        <time>2013-11-13T15:41:43Z</time>
      </trkpt>
      <trkpt lat="43.64786" lon="6.27465">
        <ele>898.7</ele>
        <time>2013-11-13T15:42:25Z</time>
      </trkpt>
      <trkpt lat="43.64787" lon="6.27465">
        <ele>898.2</ele>
        <time>2013-11-13T15:42:26Z</time>
      </trkpt>
      <trkpt lat="43.64802" lon="6.27469">
        <ele>894.9</ele>
        <time>2013-11-13T15:42:54Z</time>
      </trkpt>
      <trkpt lat="43.6481" lon="6.2747">
        <ele>893.5</ele>
        <time>2013-11-13T15:43:02Z</time>
      </trkpt>
      <trkpt lat="43.64819" lon="6.27472">
        <ele>892.6</ele>
        <time>2013-11-13T15:43:10Z</time>
      </trkpt>
      <trkpt lat="43.64827" lon="6.27474">
        <ele>891.8</ele>
        <time>2013-11-13T15:43:18Z</time>
      </trkpt>
      <trkpt lat="43.64834" lon="6.2748">
        <ele>889.9</ele>
        <time>2013-11-13T15:43:27Z</time>
      </trkpt>
      <trkpt lat="43.64835" lon="6.2748">
        <ele>889.7</ele>
        <time>2013-11-13T15:43:28Z</time>
      </trkpt>
      <trkpt lat="43.64848" lon="6.27491">
        <ele>887.1</ele>
        <time>2013-11-13T15:43:46Z</time>
      </trkpt>
      <trkpt lat="43.64854" lon="6.275">
        <ele>885.7</ele>
        <time>2013-11-13T15:43:57Z</time>
      </trkpt>
      <trkpt lat="43.64861" lon="6.27506">
        <ele>884.3</ele>
        <time>2013-11-13T15:44:07Z</time>
      </trkpt>
      <trkpt lat="43.64867" lon="6.27516">
        <ele>883.7</ele>
        <time>2013-11-13T15:44:17Z</time>
      </trkpt>
      <trkpt lat="43.64871" lon="6.27526">
        <ele>881.1</ele>
        <time>2013-11-13T15:44:31Z</time>
      </trkpt>
      <trkpt lat="43.64871" lon="6.27527">
        <ele>881</ele>
        <time>2013-11-13T15:44:32Z</time>
      </trkpt>
      <trkpt lat="43.6488" lon="6.27544">
        <ele>881.9</ele>
        <time>2013-11-13T15:45:10Z</time>
      </trkpt>
      <trkpt lat="43.64888" lon="6.27548">
        <ele>882.3</ele>
        <time>2013-11-13T15:45:20Z</time>
      </trkpt>
      <trkpt lat="43.64896" lon="6.27552">
        <ele>882.2</ele>
        <time>2013-11-13T15:45:29Z</time>
      </trkpt>
      <trkpt lat="43.64904" lon="6.27554">
        <ele>883.2</ele>
        <time>2013-11-13T15:45:38Z</time>
      </trkpt>
      <trkpt lat="43.64905" lon="6.27554">
        <ele>883.3</ele>
        <time>2013-11-13T15:45:39Z</time>
      </trkpt>
      <trkpt lat="43.64921" lon="6.27558">
        <ele>885.3</ele>
        <time>2013-11-13T15:45:58Z</time>
      </trkpt>
      <trkpt lat="43.64928" lon="6.27562">
        <ele>885.9</ele>
        <time>2013-11-13T15:46:06Z</time>
      </trkpt>
      <trkpt lat="43.64936" lon="6.27567">
        <ele>885.6</ele>
        <time>2013-11-13T15:46:13Z</time>
      </trkpt>
      <trkpt lat="43.64942" lon="6.27574">
        <ele>885.2</ele>
        <time>2013-11-13T15:46:20Z</time>
      </trkpt>
      <trkpt lat="43.6495" lon="6.27578">
        <ele>885.4</ele>
        <time>2013-11-13T15:46:28Z</time>
      </trkpt>
      <trkpt lat="43.64958" lon="6.27582">
        <ele>883.2</ele>
        <time>2013-11-13T15:46:36Z</time>
      </trkpt>
      <trkpt lat="43.64967" lon="6.27583">
        <ele>880.9</ele>
        <time>2013-11-13T15:46:46Z</time>
      </trkpt>
      <trkpt lat="43.64967" lon="6.27583">
        <ele>881.1</ele>
        <time>2013-11-13T15:46:47Z</time>
      </trkpt>
      <trkpt lat="43.64981" lon="6.2757">
        <ele>879.6</ele>
        <time>2013-11-13T15:47:08Z</time>
      </trkpt>
      <trkpt lat="43.64987" lon="6.27564">
        <ele>877.9</ele>
        <time>2013-11-13T15:47:17Z</time>
      </trkpt>
      <trkpt lat="43.64995" lon="6.27559">
        <ele>877.3</ele>
        <time>2013-11-13T15:47:26Z</time>
      </trkpt>
      <trkpt lat="43.65003" lon="6.27556">
        <ele>877.3</ele>
        <time>2013-11-13T15:47:36Z</time>
      </trkpt>
      <trkpt lat="43.65011" lon="6.27553">
        <ele>876.7</ele>
        <time>2013-11-13T15:47:45Z</time>
      </trkpt>
      <trkpt lat="43.65019" lon="6.27548">
        <ele>875.8</ele>
        <time>2013-11-13T15:47:54Z</time>
      </trkpt>
      <trkpt lat="43.6502" lon="6.27548">
        <ele>874.7</ele>
        <time>2013-11-13T15:47:55Z</time>
      </trkpt>
      <trkpt lat="43.65035" lon="6.2754">
        <ele>873</ele>
        <time>2013-11-13T15:48:08Z</time>
      </trkpt>
      <trkpt lat="43.65043" lon="6.27536">
        <ele>871.1</ele>
        <time>2013-11-13T15:48:14Z</time>
      </trkpt>
      <trkpt lat="43.6505" lon="6.2753">
        <ele>871</ele>
        <time>2013-11-13T15:48:22Z</time>
      </trkpt>
      <trkpt lat="43.65058" lon="6.27526">
        <ele>871.3</ele>
        <time>2013-11-13T15:48:29Z</time>
      </trkpt>
      <trkpt lat="43.65067" lon="6.27523">
        <ele>869.2</ele>
        <time>2013-11-13T15:48:37Z</time>
      </trkpt>
      <trkpt lat="43.65075" lon="6.27521">
        <ele>868.1</ele>
        <time>2013-11-13T15:48:47Z</time>
      </trkpt>
      <trkpt lat="43.65084" lon="6.27519">
        <ele>867.5</ele>
        <time>2013-11-13T15:48:57Z</time>
      </trkpt>
      <trkpt lat="43.65085" lon="6.27519">
        <ele>867.2</ele>
        <time>2013-11-13T15:48:58Z</time>
      </trkpt>
      <trkpt lat="43.65099" lon="6.27509">
        <ele>863.6</ele>
        <time>2013-11-13T15:49:14Z</time>
      </trkpt>
      <trkpt lat="43.65107" lon="6.27504">
        <ele>863.4</ele>
        <time>2013-11-13T15:49:21Z</time>
      </trkpt>
      <trkpt lat="43.65114" lon="6.27497">
        <ele>863</ele>
        <time>2013-11-13T15:49:28Z</time>
      </trkpt>
      <trkpt lat="43.65122" lon="6.27493">
        <ele>862.2</ele>
        <time>2013-11-13T15:49:36Z</time>
      </trkpt>
      <trkpt lat="43.6513" lon="6.27491">
        <ele>860.9</ele>
        <time>2013-11-13T15:49:44Z</time>
      </trkpt>
      <trkpt lat="43.65139" lon="6.2749">
        <ele>857.8</ele>
        <time>2013-11-13T15:49:53Z</time>
      </trkpt>
      <trkpt lat="43.65147" lon="6.27492">
        <ele>858.2</ele>
        <time>2013-11-13T15:50:03Z</time>
      </trkpt>
      <trkpt lat="43.65148" lon="6.27492">
        <ele>858.7</ele>
        <time>2013-11-13T15:50:04Z</time>
      </trkpt>
      <trkpt lat="43.65165" lon="6.27494">
        <ele>855.1</ele>
        <time>2013-11-13T15:50:22Z</time>
      </trkpt>
      <trkpt lat="43.65173" lon="6.27499">
        <ele>854.5</ele>
        <time>2013-11-13T15:50:40Z</time>
      </trkpt>
      <trkpt lat="43.6518" lon="6.27492">
        <ele>853.4</ele>
        <time>2013-11-13T15:50:52Z</time>
      </trkpt>
      <trkpt lat="43.65185" lon="6.27483">
        <ele>853.9</ele>
        <time>2013-11-13T15:51:00Z</time>
      </trkpt>
      <trkpt lat="43.6519" lon="6.27473">
        <ele>853.3</ele>
        <time>2013-11-13T15:51:12Z</time>
      </trkpt>
      <trkpt lat="43.65191" lon="6.27472">
        <ele>853.4</ele>
        <time>2013-11-13T15:51:13Z</time>
      </trkpt>
      <trkpt lat="43.65205" lon="6.2746">
        <ele>854.5</ele>
        <time>2013-11-13T15:51:28Z</time>
      </trkpt>
      <trkpt lat="43.65211" lon="6.27453">
        <ele>854.6</ele>
        <time>2013-11-13T15:51:35Z</time>
      </trkpt>
      <trkpt lat="43.65217" lon="6.27445">
        <ele>853.1</ele>
        <time>2013-11-13T15:51:41Z</time>
      </trkpt>
      <trkpt lat="43.65224" lon="6.27437">
        <ele>854.8</ele>
        <time>2013-11-13T15:51:49Z</time>
      </trkpt>
      <trkpt lat="43.65231" lon="6.27431">
        <ele>855.6</ele>
        <time>2013-11-13T15:52:01Z</time>
      </trkpt>
      <trkpt lat="43.65239" lon="6.27424">
        <ele>855.9</ele>
        <time>2013-11-13T15:52:11Z</time>
      </trkpt>
      <trkpt lat="43.65245" lon="6.27417">
        <ele>856</ele>
        <time>2013-11-13T15:52:21Z</time>
      </trkpt>
      <trkpt lat="43.65246" lon="6.27417">
        <ele>856.2</ele>
        <time>2013-11-13T15:52:22Z</time>
      </trkpt>
      <trkpt lat="43.65259" lon="6.27402">
        <ele>856</ele>
        <time>2013-11-13T15:52:36Z</time>
      </trkpt>
      <trkpt lat="43.65265" lon="6.27394">
        <ele>855.8</ele>
        <time>2013-11-13T15:52:44Z</time>
      </trkpt>
      <trkpt lat="43.65272" lon="6.27387">
        <ele>855.3</ele>
        <time>2013-11-13T15:52:52Z</time>
      </trkpt>
      <trkpt lat="43.65279" lon="6.27381">
        <ele>855.8</ele>
        <time>2013-11-13T15:53:00Z</time>
      </trkpt>
      <trkpt lat="43.65284" lon="6.27371">
        <ele>855.2</ele>
        <time>2013-11-13T15:53:14Z</time>
      </trkpt>
      <trkpt lat="43.65292" lon="6.27367">
        <ele>854.2</ele>
        <time>2013-11-13T15:53:25Z</time>
      </trkpt>
      <trkpt lat="43.65293" lon="6.27366">
        <ele>854</ele>
        <time>2013-11-13T15:53:26Z</time>
      </trkpt>
      <trkpt lat="43.65304" lon="6.27351">
        <ele>854.2</ele>
        <time>2013-11-13T15:53:39Z</time>
      </trkpt>
      <trkpt lat="43.65309" lon="6.27341">
        <ele>854.8</ele>
        <time>2013-11-13T15:53:49Z</time>
      </trkpt>
      <trkpt lat="43.65315" lon="6.27332">
        <ele>853.9</ele>
        <time>2013-11-13T15:53:58Z</time>
      </trkpt>
      <trkpt lat="43.65321" lon="6.27324">
        <ele>852.3</ele>
        <time>2013-11-13T15:54:07Z</time>
      </trkpt>
      <trkpt lat="43.65329" lon="6.27327">
        <ele>851.3</ele>
        <time>2013-11-13T15:54:25Z</time>
      </trkpt>
      <trkpt lat="43.65334" lon="6.27337">
        <ele>851.1</ele>
        <time>2013-11-13T15:54:43Z</time>
      </trkpt>
      <trkpt lat="43.65335" lon="6.27338">
        <ele>851</ele>
        <time>2013-11-13T15:54:44Z</time>
      </trkpt>
      <trkpt lat="43.65338" lon="6.27359">
        <ele>849.9</ele>
        <time>2013-11-13T15:54:58Z</time>
      </trkpt>
      <trkpt lat="43.65347" lon="6.27363">
        <ele>850.1</ele>
        <time>2013-11-13T15:55:10Z</time>
      </trkpt>
      <trkpt lat="43.65355" lon="6.2736">
        <ele>849</ele>
        <time>2013-11-13T15:55:21Z</time>
      </trkpt>
      <trkpt lat="43.65363" lon="6.27357">
        <ele>848.8</ele>
        <time>2013-11-13T15:55:37Z</time>
      </trkpt>
      <trkpt lat="43.65371" lon="6.27358">
        <ele>849.1</ele>
        <time>2013-11-13T15:55:48Z</time>
      </trkpt>
      <trkpt lat="43.65372" lon="6.27359">
        <ele>849.3</ele>
        <time>2013-11-13T15:55:49Z</time>
      </trkpt>
      <trkpt lat="43.65371" lon="6.2738">
        <ele>850.4</ele>
        <time>2013-11-13T15:56:12Z</time>
      </trkpt>
      <trkpt lat="43.65362" lon="6.27383">
        <ele>850.9</ele>
        <time>2013-11-13T15:56:53Z</time>
      </trkpt>
      <trkpt lat="43.65362" lon="6.27383">
        <ele>850.7</ele>
        <time>2013-11-13T15:56:54Z</time>
      </trkpt>
      <trkpt lat="43.65366" lon="6.27361">
        <ele>849.8</ele>
        <time>2013-11-13T15:57:13Z</time>
      </trkpt>
      <trkpt lat="43.6537" lon="6.27349">
        <ele>849.9</ele>
        <time>2013-11-13T15:57:26Z</time>
      </trkpt>
      <trkpt lat="43.65372" lon="6.27337">
        <ele>848.2</ele>
        <time>2013-11-13T15:57:38Z</time>
      </trkpt>
      <trkpt lat="43.65379" lon="6.27329">
        <ele>849</ele>
        <time>2013-11-13T15:57:58Z</time>
      </trkpt>
      <trkpt lat="43.65379" lon="6.27329">
        <ele>847.9</ele>
        <time>2013-11-13T15:57:59Z</time>
      </trkpt>
    </trkseg>
  </trk>
</gpx>